<?xml version="1.0" encoding="UTF-8" standalone="no" ?>
<gpx xmlns="http://www.topografix.com/GPX/1/1" xmlns:xsi="http://www.w3.org/2001/XMLSchema-instance" xsi:schemaLocation="http://www.topografix.com/GPX/1/1 http://www.topografix.com/GPX/1/1/gpx.xsd" version="1.1" creator="VisuGPX - https://www.visugpx.com">
  <metadata>
    <name>Le Moure de la Gardille</name>
    <desc><![CDATA[Chasseradès, les sources du Chassezac et de l'Allier. ]]></desc>
  </metadata>
  <trk>
    <name><![CDATA[2023 05 21 Boucle des sources de l Allier-16821955]]></name>
    <trkseg>
      <trkpt lat="44.55101" lon="3.82408">
        <ele>1179</ele>
        <time>2025-02-07T09:06:14Z</time>
      </trkpt>
      <trkpt lat="44.55106" lon="3.82411">
        <ele>1180</ele>
        <time>2025-02-07T09:06:21Z</time>
      </trkpt>
      <trkpt lat="44.55102" lon="3.82415">
        <ele>1179</ele>
        <time>2025-02-07T09:06:28Z</time>
      </trkpt>
      <trkpt lat="44.55109" lon="3.82423">
        <ele>1179</ele>
        <time>2025-02-07T09:06:40Z</time>
      </trkpt>
      <trkpt lat="44.55118" lon="3.82448">
        <ele>1179</ele>
        <time>2025-02-07T09:07:06Z</time>
      </trkpt>
      <trkpt lat="44.55135" lon="3.82461">
        <ele>1179</ele>
        <time>2025-02-07T09:07:32Z</time>
      </trkpt>
      <trkpt lat="44.5514" lon="3.82462">
        <ele>1179</ele>
        <time>2025-02-07T09:07:39Z</time>
      </trkpt>
      <trkpt lat="44.55158" lon="3.82456">
        <ele>1181</ele>
        <time>2025-02-07T09:08:04Z</time>
      </trkpt>
      <trkpt lat="44.5518" lon="3.82461">
        <ele>1181</ele>
        <time>2025-02-07T09:08:34Z</time>
      </trkpt>
      <trkpt lat="44.55199" lon="3.82462">
        <ele>1182</ele>
        <time>2025-02-07T09:08:59Z</time>
      </trkpt>
      <trkpt lat="44.55213" lon="3.82455">
        <ele>1182</ele>
        <time>2025-02-07T09:09:19Z</time>
      </trkpt>
      <trkpt lat="44.5522" lon="3.82448">
        <ele>1183</ele>
        <time>2025-02-07T09:09:30Z</time>
      </trkpt>
      <trkpt lat="44.55222" lon="3.82442">
        <ele>1183</ele>
        <time>2025-02-07T09:09:36Z</time>
      </trkpt>
      <trkpt lat="44.55242" lon="3.82417">
        <ele>1186</ele>
        <time>2025-02-07T09:10:12Z</time>
      </trkpt>
      <trkpt lat="44.5525" lon="3.82401">
        <ele>1187</ele>
        <time>2025-02-07T09:10:31Z</time>
      </trkpt>
      <trkpt lat="44.55263" lon="3.82389">
        <ele>1187</ele>
        <time>2025-02-07T09:10:52Z</time>
      </trkpt>
      <trkpt lat="44.5528" lon="3.82366">
        <ele>1189</ele>
        <time>2025-02-07T09:11:23Z</time>
      </trkpt>
      <trkpt lat="44.55336" lon="3.82326">
        <ele>1190</ele>
        <time>2025-02-07T09:12:47Z</time>
      </trkpt>
      <trkpt lat="44.55379" lon="3.82309">
        <ele>1191</ele>
        <time>2025-02-07T09:13:47Z</time>
      </trkpt>
      <trkpt lat="44.55384" lon="3.82305">
        <ele>1191</ele>
        <time>2025-02-07T09:13:54Z</time>
      </trkpt>
      <trkpt lat="44.55435" lon="3.82285">
        <ele>1193</ele>
        <time>2025-02-07T09:15:05Z</time>
      </trkpt>
      <trkpt lat="44.55476" lon="3.82274">
        <ele>1196</ele>
        <time>2025-02-07T09:16:01Z</time>
      </trkpt>
      <trkpt lat="44.55476" lon="3.82293">
        <ele>1195</ele>
        <time>2025-02-07T09:16:19Z</time>
      </trkpt>
      <trkpt lat="44.55475" lon="3.82284">
        <ele>1196</ele>
        <time>2025-02-07T09:16:27Z</time>
      </trkpt>
      <trkpt lat="44.55482" lon="3.82272">
        <ele>1197</ele>
        <time>2025-02-07T09:16:42Z</time>
      </trkpt>
      <trkpt lat="44.55486" lon="3.82273">
        <ele>1197</ele>
        <time>2025-02-07T09:16:47Z</time>
      </trkpt>
      <trkpt lat="44.55524" lon="3.82262">
        <ele>1200</ele>
        <time>2025-02-07T09:17:39Z</time>
      </trkpt>
      <trkpt lat="44.55575" lon="3.8226">
        <ele>1203</ele>
        <time>2025-02-07T09:18:47Z</time>
      </trkpt>
      <trkpt lat="44.55584" lon="3.82263">
        <ele>1203</ele>
        <time>2025-02-07T09:19:00Z</time>
      </trkpt>
      <trkpt lat="44.55669" lon="3.82259">
        <ele>1207</ele>
        <time>2025-02-07T09:20:53Z</time>
      </trkpt>
      <trkpt lat="44.55708" lon="3.82251">
        <ele>1208</ele>
        <time>2025-02-07T09:21:46Z</time>
      </trkpt>
      <trkpt lat="44.55726" lon="3.82244">
        <ele>1209</ele>
        <time>2025-02-07T09:22:11Z</time>
      </trkpt>
      <trkpt lat="44.5573" lon="3.82245">
        <ele>1209</ele>
        <time>2025-02-07T09:22:16Z</time>
      </trkpt>
      <trkpt lat="44.55752" lon="3.8224">
        <ele>1210</ele>
        <time>2025-02-07T09:22:46Z</time>
      </trkpt>
      <trkpt lat="44.55803" lon="3.82223">
        <ele>1210</ele>
        <time>2025-02-07T09:23:56Z</time>
      </trkpt>
      <trkpt lat="44.55812" lon="3.82217">
        <ele>1211</ele>
        <time>2025-02-07T09:24:09Z</time>
      </trkpt>
      <trkpt lat="44.55826" lon="3.82213">
        <ele>1211</ele>
        <time>2025-02-07T09:24:28Z</time>
      </trkpt>
      <trkpt lat="44.55835" lon="3.82214">
        <ele>1211</ele>
        <time>2025-02-07T09:24:40Z</time>
      </trkpt>
      <trkpt lat="44.55859" lon="3.82198">
        <ele>1213</ele>
        <time>2025-02-07T09:25:16Z</time>
      </trkpt>
      <trkpt lat="44.55867" lon="3.82197">
        <ele>1213</ele>
        <time>2025-02-07T09:25:26Z</time>
      </trkpt>
      <trkpt lat="44.55877" lon="3.82191">
        <ele>1213</ele>
        <time>2025-02-07T09:25:41Z</time>
      </trkpt>
      <trkpt lat="44.55905" lon="3.82182">
        <ele>1213</ele>
        <time>2025-02-07T09:26:19Z</time>
      </trkpt>
      <trkpt lat="44.55923" lon="3.82166">
        <ele>1213</ele>
        <time>2025-02-07T09:26:48Z</time>
      </trkpt>
      <trkpt lat="44.55937" lon="3.82166">
        <ele>1212</ele>
        <time>2025-02-07T09:27:06Z</time>
      </trkpt>
      <trkpt lat="44.5594" lon="3.8216">
        <ele>1212</ele>
        <time>2025-02-07T09:27:13Z</time>
      </trkpt>
      <trkpt lat="44.55962" lon="3.82146">
        <ele>1210</ele>
        <time>2025-02-07T09:27:46Z</time>
      </trkpt>
      <trkpt lat="44.55971" lon="3.82146">
        <ele>1210</ele>
        <time>2025-02-07T09:27:58Z</time>
      </trkpt>
      <trkpt lat="44.5598" lon="3.82139">
        <ele>1210</ele>
        <time>2025-02-07T09:28:11Z</time>
      </trkpt>
      <trkpt lat="44.55995" lon="3.82132">
        <ele>1209</ele>
        <time>2025-02-07T09:28:32Z</time>
      </trkpt>
      <trkpt lat="44.56003" lon="3.82132">
        <ele>1209</ele>
        <time>2025-02-07T09:28:43Z</time>
      </trkpt>
      <trkpt lat="44.56025" lon="3.82121">
        <ele>1210</ele>
        <time>2025-02-07T09:29:14Z</time>
      </trkpt>
      <trkpt lat="44.56038" lon="3.82111">
        <ele>1210</ele>
        <time>2025-02-07T09:29:34Z</time>
      </trkpt>
      <trkpt lat="44.56052" lon="3.82078">
        <ele>1212</ele>
        <time>2025-02-07T09:30:11Z</time>
      </trkpt>
      <trkpt lat="44.56051" lon="3.82073">
        <ele>1212</ele>
        <time>2025-02-07T09:30:16Z</time>
      </trkpt>
      <trkpt lat="44.56058" lon="3.82067">
        <ele>1212</ele>
        <time>2025-02-07T09:30:26Z</time>
      </trkpt>
      <trkpt lat="44.56066" lon="3.8205">
        <ele>1213</ele>
        <time>2025-02-07T09:30:46Z</time>
      </trkpt>
      <trkpt lat="44.56088" lon="3.8202">
        <ele>1214</ele>
        <time>2025-02-07T09:31:27Z</time>
      </trkpt>
      <trkpt lat="44.56094" lon="3.82008">
        <ele>1214</ele>
        <time>2025-02-07T09:31:41Z</time>
      </trkpt>
      <trkpt lat="44.56113" lon="3.81986">
        <ele>1215</ele>
        <time>2025-02-07T09:32:14Z</time>
      </trkpt>
      <trkpt lat="44.56115" lon="3.8198">
        <ele>1215</ele>
        <time>2025-02-07T09:32:20Z</time>
      </trkpt>
      <trkpt lat="44.56124" lon="3.81973">
        <ele>1216</ele>
        <time>2025-02-07T09:32:34Z</time>
      </trkpt>
      <trkpt lat="44.56156" lon="3.8193">
        <ele>1218</ele>
        <time>2025-02-07T09:33:33Z</time>
      </trkpt>
      <trkpt lat="44.56168" lon="3.81908">
        <ele>1219</ele>
        <time>2025-02-07T09:33:59Z</time>
      </trkpt>
      <trkpt lat="44.56177" lon="3.81902">
        <ele>1220</ele>
        <time>2025-02-07T09:34:12Z</time>
      </trkpt>
      <trkpt lat="44.56201" lon="3.81875">
        <ele>1222</ele>
        <time>2025-02-07T09:34:53Z</time>
      </trkpt>
      <trkpt lat="44.56271" lon="3.81806">
        <ele>1229</ele>
        <time>2025-02-07T09:36:48Z</time>
      </trkpt>
      <trkpt lat="44.56304" lon="3.81783">
        <ele>1233</ele>
        <time>2025-02-07T09:37:37Z</time>
      </trkpt>
      <trkpt lat="44.56314" lon="3.81771">
        <ele>1235</ele>
        <time>2025-02-07T09:37:54Z</time>
      </trkpt>
      <trkpt lat="44.56335" lon="3.81753">
        <ele>1238</ele>
        <time>2025-02-07T09:38:27Z</time>
      </trkpt>
      <trkpt lat="44.5634" lon="3.81744">
        <ele>1239</ele>
        <time>2025-02-07T09:38:38Z</time>
      </trkpt>
      <trkpt lat="44.56403" lon="3.81691">
        <ele>1244</ele>
        <time>2025-02-07T09:40:16Z</time>
      </trkpt>
      <trkpt lat="44.56407" lon="3.8169">
        <ele>1245</ele>
        <time>2025-02-07T09:40:21Z</time>
      </trkpt>
      <trkpt lat="44.56431" lon="3.8167">
        <ele>1247</ele>
        <time>2025-02-07T09:40:59Z</time>
      </trkpt>
      <trkpt lat="44.56509" lon="3.81613">
        <ele>1252</ele>
        <time>2025-02-07T09:42:56Z</time>
      </trkpt>
      <trkpt lat="44.56513" lon="3.81612">
        <ele>1252</ele>
        <time>2025-02-07T09:43:01Z</time>
      </trkpt>
      <trkpt lat="44.56536" lon="3.81593">
        <ele>1254</ele>
        <time>2025-02-07T09:43:37Z</time>
      </trkpt>
      <trkpt lat="44.56561" lon="3.8158">
        <ele>1255</ele>
        <time>2025-02-07T09:44:13Z</time>
      </trkpt>
      <trkpt lat="44.56575" lon="3.81569">
        <ele>1256</ele>
        <time>2025-02-07T09:44:34Z</time>
      </trkpt>
      <trkpt lat="44.56599" lon="3.8156">
        <ele>1259</ele>
        <time>2025-02-07T09:45:07Z</time>
      </trkpt>
      <trkpt lat="44.56616" lon="3.81549">
        <ele>1261</ele>
        <time>2025-02-07T09:45:32Z</time>
      </trkpt>
      <trkpt lat="44.56622" lon="3.81544">
        <ele>1262</ele>
        <time>2025-02-07T09:45:41Z</time>
      </trkpt>
      <trkpt lat="44.56632" lon="3.81529">
        <ele>1263</ele>
        <time>2025-02-07T09:46:01Z</time>
      </trkpt>
      <trkpt lat="44.56651" lon="3.81514">
        <ele>1265</ele>
        <time>2025-02-07T09:46:30Z</time>
      </trkpt>
      <trkpt lat="44.5666" lon="3.81503">
        <ele>1266</ele>
        <time>2025-02-07T09:46:46Z</time>
      </trkpt>
      <trkpt lat="44.56678" lon="3.81478">
        <ele>1268</ele>
        <time>2025-02-07T09:47:20Z</time>
      </trkpt>
      <trkpt lat="44.56709" lon="3.81417">
        <ele>1270</ele>
        <time>2025-02-07T09:48:31Z</time>
      </trkpt>
      <trkpt lat="44.56724" lon="3.81398">
        <ele>1272</ele>
        <time>2025-02-07T09:48:58Z</time>
      </trkpt>
      <trkpt lat="44.56738" lon="3.81375">
        <ele>1274</ele>
        <time>2025-02-07T09:49:27Z</time>
      </trkpt>
      <trkpt lat="44.56744" lon="3.8136">
        <ele>1275</ele>
        <time>2025-02-07T09:49:43Z</time>
      </trkpt>
      <trkpt lat="44.56745" lon="3.81345">
        <ele>1275</ele>
        <time>2025-02-07T09:49:57Z</time>
      </trkpt>
      <trkpt lat="44.56742" lon="3.81337">
        <ele>1275</ele>
        <time>2025-02-07T09:50:06Z</time>
      </trkpt>
      <trkpt lat="44.56741" lon="3.81322">
        <ele>1275</ele>
        <time>2025-02-07T09:50:20Z</time>
      </trkpt>
      <trkpt lat="44.56746" lon="3.81312">
        <ele>1276</ele>
        <time>2025-02-07T09:50:32Z</time>
      </trkpt>
      <trkpt lat="44.56768" lon="3.81233">
        <ele>1276</ele>
        <time>2025-02-07T09:51:53Z</time>
      </trkpt>
      <trkpt lat="44.56778" lon="3.8121">
        <ele>1276</ele>
        <time>2025-02-07T09:52:18Z</time>
      </trkpt>
      <trkpt lat="44.56783" lon="3.81189">
        <ele>1276</ele>
        <time>2025-02-07T09:52:39Z</time>
      </trkpt>
      <trkpt lat="44.56794" lon="3.81123">
        <ele>1278</ele>
        <time>2025-02-07T09:53:44Z</time>
      </trkpt>
      <trkpt lat="44.56802" lon="3.81046">
        <ele>1280</ele>
        <time>2025-02-07T09:54:58Z</time>
      </trkpt>
      <trkpt lat="44.56802" lon="3.81026">
        <ele>1281</ele>
        <time>2025-02-07T09:55:17Z</time>
      </trkpt>
      <trkpt lat="44.56813" lon="3.80958">
        <ele>1286</ele>
        <time>2025-02-07T09:56:23Z</time>
      </trkpt>
      <trkpt lat="44.56814" lon="3.80924">
        <ele>1288</ele>
        <time>2025-02-07T09:56:55Z</time>
      </trkpt>
      <trkpt lat="44.56817" lon="3.80919">
        <ele>1289</ele>
        <time>2025-02-07T09:57:02Z</time>
      </trkpt>
      <trkpt lat="44.56819" lon="3.80891">
        <ele>1290</ele>
        <time>2025-02-07T09:57:28Z</time>
      </trkpt>
      <trkpt lat="44.56829" lon="3.80827">
        <ele>1293</ele>
        <time>2025-02-07T09:58:31Z</time>
      </trkpt>
      <trkpt lat="44.56841" lon="3.80777">
        <ele>1295</ele>
        <time>2025-02-07T09:59:21Z</time>
      </trkpt>
      <trkpt lat="44.56861" lon="3.80725">
        <ele>1297</ele>
        <time>2025-02-07T10:00:17Z</time>
      </trkpt>
      <trkpt lat="44.56862" lon="3.80712">
        <ele>1297</ele>
        <time>2025-02-07T10:00:29Z</time>
      </trkpt>
      <trkpt lat="44.5688" lon="3.80644">
        <ele>1298</ele>
        <time>2025-02-07T10:01:38Z</time>
      </trkpt>
      <trkpt lat="44.56879" lon="3.80635">
        <ele>1298</ele>
        <time>2025-02-07T10:01:47Z</time>
      </trkpt>
      <trkpt lat="44.56887" lon="3.80611">
        <ele>1298</ele>
        <time>2025-02-07T10:02:12Z</time>
      </trkpt>
      <trkpt lat="44.56894" lon="3.80565">
        <ele>1297</ele>
        <time>2025-02-07T10:02:57Z</time>
      </trkpt>
      <trkpt lat="44.56912" lon="3.80487">
        <ele>1298</ele>
        <time>2025-02-07T10:04:15Z</time>
      </trkpt>
      <trkpt lat="44.56937" lon="3.80403">
        <ele>1297</ele>
        <time>2025-02-07T10:05:41Z</time>
      </trkpt>
      <trkpt lat="44.56945" lon="3.80306">
        <ele>1294</ele>
        <time>2025-02-07T10:07:14Z</time>
      </trkpt>
      <trkpt lat="44.56957" lon="3.80214">
        <ele>1292</ele>
        <time>2025-02-07T10:08:43Z</time>
      </trkpt>
      <trkpt lat="44.56956" lon="3.80208">
        <ele>1292</ele>
        <time>2025-02-07T10:08:49Z</time>
      </trkpt>
      <trkpt lat="44.56961" lon="3.80196">
        <ele>1293</ele>
        <time>2025-02-07T10:09:02Z</time>
      </trkpt>
      <trkpt lat="44.56961" lon="3.80162">
        <ele>1293</ele>
        <time>2025-02-07T10:09:35Z</time>
      </trkpt>
      <trkpt lat="44.56964" lon="3.80136">
        <ele>1293</ele>
        <time>2025-02-07T10:10:00Z</time>
      </trkpt>
      <trkpt lat="44.5697" lon="3.80111">
        <ele>1293</ele>
        <time>2025-02-07T10:10:25Z</time>
      </trkpt>
      <trkpt lat="44.56979" lon="3.80049">
        <ele>1293</ele>
        <time>2025-02-07T10:11:25Z</time>
      </trkpt>
      <trkpt lat="44.57003" lon="3.79962">
        <ele>1294</ele>
        <time>2025-02-07T10:12:54Z</time>
      </trkpt>
      <trkpt lat="44.57044" lon="3.79864">
        <ele>1296</ele>
        <time>2025-02-07T10:14:42Z</time>
      </trkpt>
      <trkpt lat="44.57059" lon="3.79842">
        <ele>1298</ele>
        <time>2025-02-07T10:15:11Z</time>
      </trkpt>
      <trkpt lat="44.57127" lon="3.79783">
        <ele>1301</ele>
        <time>2025-02-07T10:16:57Z</time>
      </trkpt>
      <trkpt lat="44.57163" lon="3.79739">
        <ele>1306</ele>
        <time>2025-02-07T10:18:01Z</time>
      </trkpt>
      <trkpt lat="44.57212" lon="3.79691">
        <ele>1312</ele>
        <time>2025-02-07T10:19:21Z</time>
      </trkpt>
      <trkpt lat="44.57224" lon="3.79675">
        <ele>1315</ele>
        <time>2025-02-07T10:19:43Z</time>
      </trkpt>
      <trkpt lat="44.5723" lon="3.79673">
        <ele>1316</ele>
        <time>2025-02-07T10:19:51Z</time>
      </trkpt>
      <trkpt lat="44.57262" lon="3.7965">
        <ele>1323</ele>
        <time>2025-02-07T10:20:39Z</time>
      </trkpt>
      <trkpt lat="44.57262" lon="3.79652">
        <ele>1323</ele>
        <time>2025-02-07T10:20:41Z</time>
      </trkpt>
      <trkpt lat="44.57268" lon="3.79651">
        <ele>1323</ele>
        <time>2025-02-07T10:20:49Z</time>
      </trkpt>
      <trkpt lat="44.57266" lon="3.79645">
        <ele>1323</ele>
        <time>2025-02-07T10:20:55Z</time>
      </trkpt>
      <trkpt lat="44.57261" lon="3.79651">
        <ele>1322</ele>
        <time>2025-02-07T10:21:04Z</time>
      </trkpt>
      <trkpt lat="44.57268" lon="3.79654">
        <ele>1323</ele>
        <time>2025-02-07T10:21:14Z</time>
      </trkpt>
      <trkpt lat="44.5729" lon="3.79648">
        <ele>1327</ele>
        <time>2025-02-07T10:21:44Z</time>
      </trkpt>
      <trkpt lat="44.57329" lon="3.79644">
        <ele>1333</ele>
        <time>2025-02-07T10:22:36Z</time>
      </trkpt>
      <trkpt lat="44.57356" lon="3.79646">
        <ele>1336</ele>
        <time>2025-02-07T10:23:12Z</time>
      </trkpt>
      <trkpt lat="44.57366" lon="3.7965">
        <ele>1337</ele>
        <time>2025-02-07T10:23:26Z</time>
      </trkpt>
      <trkpt lat="44.5743" lon="3.79653">
        <ele>1343</ele>
        <time>2025-02-07T10:24:51Z</time>
      </trkpt>
      <trkpt lat="44.57463" lon="3.79648">
        <ele>1348</ele>
        <time>2025-02-07T10:25:36Z</time>
      </trkpt>
      <trkpt lat="44.57494" lon="3.79639">
        <ele>1353</ele>
        <time>2025-02-07T10:26:18Z</time>
      </trkpt>
      <trkpt lat="44.57541" lon="3.79621">
        <ele>1360</ele>
        <time>2025-02-07T10:27:23Z</time>
      </trkpt>
      <trkpt lat="44.57558" lon="3.79624">
        <ele>1362</ele>
        <time>2025-02-07T10:27:46Z</time>
      </trkpt>
      <trkpt lat="44.57562" lon="3.79632">
        <ele>1361</ele>
        <time>2025-02-07T10:27:55Z</time>
      </trkpt>
      <trkpt lat="44.5757" lon="3.79629">
        <ele>1362</ele>
        <time>2025-02-07T10:28:06Z</time>
      </trkpt>
      <trkpt lat="44.57568" lon="3.79608">
        <ele>1364</ele>
        <time>2025-02-07T10:28:26Z</time>
      </trkpt>
      <trkpt lat="44.5753" lon="3.7958">
        <ele>1365</ele>
        <time>2025-02-07T10:29:23Z</time>
      </trkpt>
      <trkpt lat="44.57525" lon="3.79574">
        <ele>1365</ele>
        <time>2025-02-07T10:29:32Z</time>
      </trkpt>
      <trkpt lat="44.57508" lon="3.79566">
        <ele>1365</ele>
        <time>2025-02-07T10:29:56Z</time>
      </trkpt>
      <trkpt lat="44.57465" lon="3.7952">
        <ele>1369</ele>
        <time>2025-02-07T10:31:08Z</time>
      </trkpt>
      <trkpt lat="44.57463" lon="3.79504">
        <ele>1371</ele>
        <time>2025-02-07T10:31:24Z</time>
      </trkpt>
      <trkpt lat="44.57473" lon="3.79501">
        <ele>1373</ele>
        <time>2025-02-07T10:31:37Z</time>
      </trkpt>
      <trkpt lat="44.57483" lon="3.7949">
        <ele>1375</ele>
        <time>2025-02-07T10:31:54Z</time>
      </trkpt>
      <trkpt lat="44.57543" lon="3.79465">
        <ele>1382</ele>
        <time>2025-02-07T10:33:18Z</time>
      </trkpt>
      <trkpt lat="44.57548" lon="3.7946">
        <ele>1383</ele>
        <time>2025-02-07T10:33:26Z</time>
      </trkpt>
      <trkpt lat="44.57578" lon="3.79449">
        <ele>1385</ele>
        <time>2025-02-07T10:34:07Z</time>
      </trkpt>
      <trkpt lat="44.57593" lon="3.79439">
        <ele>1387</ele>
        <time>2025-02-07T10:34:30Z</time>
      </trkpt>
      <trkpt lat="44.57611" lon="3.79438">
        <ele>1388</ele>
        <time>2025-02-07T10:34:54Z</time>
      </trkpt>
      <trkpt lat="44.57674" lon="3.79423">
        <ele>1393</ele>
        <time>2025-02-07T10:36:19Z</time>
      </trkpt>
      <trkpt lat="44.57702" lon="3.79424">
        <ele>1395</ele>
        <time>2025-02-07T10:36:56Z</time>
      </trkpt>
      <trkpt lat="44.57702" lon="3.79431">
        <ele>1395</ele>
        <time>2025-02-07T10:37:03Z</time>
      </trkpt>
      <trkpt lat="44.57711" lon="3.79429">
        <ele>1395</ele>
        <time>2025-02-07T10:37:15Z</time>
      </trkpt>
      <trkpt lat="44.57712" lon="3.79439">
        <ele>1395</ele>
        <time>2025-02-07T10:37:25Z</time>
      </trkpt>
      <trkpt lat="44.5772" lon="3.79442">
        <ele>1396</ele>
        <time>2025-02-07T10:37:36Z</time>
      </trkpt>
      <trkpt lat="44.57728" lon="3.79439">
        <ele>1396</ele>
        <time>2025-02-07T10:37:47Z</time>
      </trkpt>
      <trkpt lat="44.57762" lon="3.79446">
        <ele>1399</ele>
        <time>2025-02-07T10:38:33Z</time>
      </trkpt>
      <trkpt lat="44.57779" lon="3.79453">
        <ele>1401</ele>
        <time>2025-02-07T10:38:56Z</time>
      </trkpt>
      <trkpt lat="44.57794" lon="3.79463">
        <ele>1403</ele>
        <time>2025-02-07T10:39:18Z</time>
      </trkpt>
      <trkpt lat="44.57803" lon="3.79462">
        <ele>1404</ele>
        <time>2025-02-07T10:39:30Z</time>
      </trkpt>
      <trkpt lat="44.57811" lon="3.79466">
        <ele>1405</ele>
        <time>2025-02-07T10:39:42Z</time>
      </trkpt>
      <trkpt lat="44.57835" lon="3.79484">
        <ele>1408</ele>
        <time>2025-02-07T10:40:18Z</time>
      </trkpt>
      <trkpt lat="44.57844" lon="3.79484">
        <ele>1409</ele>
        <time>2025-02-07T10:40:30Z</time>
      </trkpt>
      <trkpt lat="44.57856" lon="3.79492">
        <ele>1411</ele>
        <time>2025-02-07T10:40:48Z</time>
      </trkpt>
      <trkpt lat="44.57862" lon="3.795">
        <ele>1411</ele>
        <time>2025-02-07T10:40:59Z</time>
      </trkpt>
      <trkpt lat="44.57896" lon="3.79521">
        <ele>1415</ele>
        <time>2025-02-07T10:41:48Z</time>
      </trkpt>
      <trkpt lat="44.57903" lon="3.79529">
        <ele>1416</ele>
        <time>2025-02-07T10:42:00Z</time>
      </trkpt>
      <trkpt lat="44.57912" lon="3.79533">
        <ele>1417</ele>
        <time>2025-02-07T10:42:13Z</time>
      </trkpt>
      <trkpt lat="44.57923" lon="3.79532">
        <ele>1418</ele>
        <time>2025-02-07T10:42:28Z</time>
      </trkpt>
      <trkpt lat="44.57937" lon="3.79546">
        <ele>1419</ele>
        <time>2025-02-07T10:42:51Z</time>
      </trkpt>
      <trkpt lat="44.5795" lon="3.79554">
        <ele>1421</ele>
        <time>2025-02-07T10:43:10Z</time>
      </trkpt>
      <trkpt lat="44.57963" lon="3.79574">
        <ele>1422</ele>
        <time>2025-02-07T10:43:35Z</time>
      </trkpt>
      <trkpt lat="44.57978" lon="3.79581">
        <ele>1424</ele>
        <time>2025-02-07T10:43:56Z</time>
      </trkpt>
      <trkpt lat="44.58016" lon="3.79595">
        <ele>1427</ele>
        <time>2025-02-07T10:44:49Z</time>
      </trkpt>
      <trkpt lat="44.58059" lon="3.79595">
        <ele>1430</ele>
        <time>2025-02-07T10:45:46Z</time>
      </trkpt>
      <trkpt lat="44.58065" lon="3.79592">
        <ele>1430</ele>
        <time>2025-02-07T10:45:55Z</time>
      </trkpt>
      <trkpt lat="44.5807" lon="3.79596">
        <ele>1430</ele>
        <time>2025-02-07T10:46:02Z</time>
      </trkpt>
      <trkpt lat="44.58073" lon="3.79582">
        <ele>1431</ele>
        <time>2025-02-07T10:46:16Z</time>
      </trkpt>
      <trkpt lat="44.58086" lon="3.79573">
        <ele>1432</ele>
        <time>2025-02-07T10:46:36Z</time>
      </trkpt>
      <trkpt lat="44.58116" lon="3.79509">
        <ele>1433</ele>
        <time>2025-02-07T10:47:49Z</time>
      </trkpt>
      <trkpt lat="44.58127" lon="3.79497">
        <ele>1433</ele>
        <time>2025-02-07T10:48:07Z</time>
      </trkpt>
      <trkpt lat="44.58129" lon="3.79486">
        <ele>1433</ele>
        <time>2025-02-07T10:48:18Z</time>
      </trkpt>
      <trkpt lat="44.58137" lon="3.79473">
        <ele>1433</ele>
        <time>2025-02-07T10:48:34Z</time>
      </trkpt>
      <trkpt lat="44.58147" lon="3.79466">
        <ele>1433</ele>
        <time>2025-02-07T10:48:49Z</time>
      </trkpt>
      <trkpt lat="44.58163" lon="3.79446">
        <ele>1434</ele>
        <time>2025-02-07T10:49:18Z</time>
      </trkpt>
      <trkpt lat="44.58196" lon="3.79425">
        <ele>1434</ele>
        <time>2025-02-07T10:50:06Z</time>
      </trkpt>
      <trkpt lat="44.5823" lon="3.79389">
        <ele>1435</ele>
        <time>2025-02-07T10:51:03Z</time>
      </trkpt>
      <trkpt lat="44.5825" lon="3.79375">
        <ele>1437</ele>
        <time>2025-02-07T10:51:33Z</time>
      </trkpt>
      <trkpt lat="44.58281" lon="3.79332">
        <ele>1440</ele>
        <time>2025-02-07T10:52:31Z</time>
      </trkpt>
      <trkpt lat="44.583" lon="3.79322">
        <ele>1441</ele>
        <time>2025-02-07T10:52:58Z</time>
      </trkpt>
      <trkpt lat="44.58329" lon="3.793">
        <ele>1443</ele>
        <time>2025-02-07T10:53:42Z</time>
      </trkpt>
      <trkpt lat="44.58341" lon="3.79296">
        <ele>1444</ele>
        <time>2025-02-07T10:53:58Z</time>
      </trkpt>
      <trkpt lat="44.58347" lon="3.7929">
        <ele>1444</ele>
        <time>2025-02-07T10:54:08Z</time>
      </trkpt>
      <trkpt lat="44.58364" lon="3.79287">
        <ele>1444</ele>
        <time>2025-02-07T10:54:31Z</time>
      </trkpt>
      <trkpt lat="44.58384" lon="3.79273">
        <ele>1445</ele>
        <time>2025-02-07T10:55:01Z</time>
      </trkpt>
      <trkpt lat="44.58397" lon="3.79268">
        <ele>1445</ele>
        <time>2025-02-07T10:55:19Z</time>
      </trkpt>
      <trkpt lat="44.58416" lon="3.79253">
        <ele>1446</ele>
        <time>2025-02-07T10:55:48Z</time>
      </trkpt>
      <trkpt lat="44.58421" lon="3.79253">
        <ele>1446</ele>
        <time>2025-02-07T10:55:55Z</time>
      </trkpt>
      <trkpt lat="44.58426" lon="3.79257">
        <ele>1446</ele>
        <time>2025-02-07T10:56:02Z</time>
      </trkpt>
      <trkpt lat="44.58432" lon="3.79251">
        <ele>1446</ele>
        <time>2025-02-07T10:56:12Z</time>
      </trkpt>
      <trkpt lat="44.58447" lon="3.79246">
        <ele>1446</ele>
        <time>2025-02-07T10:56:33Z</time>
      </trkpt>
      <trkpt lat="44.58461" lon="3.79242">
        <ele>1446</ele>
        <time>2025-02-07T10:56:52Z</time>
      </trkpt>
      <trkpt lat="44.58474" lon="3.79243">
        <ele>1446</ele>
        <time>2025-02-07T10:57:09Z</time>
      </trkpt>
      <trkpt lat="44.58497" lon="3.79234">
        <ele>1446</ele>
        <time>2025-02-07T10:57:41Z</time>
      </trkpt>
      <trkpt lat="44.58507" lon="3.79224">
        <ele>1446</ele>
        <time>2025-02-07T10:57:57Z</time>
      </trkpt>
      <trkpt lat="44.58525" lon="3.79212">
        <ele>1446</ele>
        <time>2025-02-07T10:58:24Z</time>
      </trkpt>
      <trkpt lat="44.58542" lon="3.79202">
        <ele>1447</ele>
        <time>2025-02-07T10:58:49Z</time>
      </trkpt>
      <trkpt lat="44.58552" lon="3.792">
        <ele>1448</ele>
        <time>2025-02-07T10:59:02Z</time>
      </trkpt>
      <trkpt lat="44.5858" lon="3.79174">
        <ele>1450</ele>
        <time>2025-02-07T10:59:47Z</time>
      </trkpt>
      <trkpt lat="44.58611" lon="3.79168">
        <ele>1453</ele>
        <time>2025-02-07T11:00:29Z</time>
      </trkpt>
      <trkpt lat="44.58628" lon="3.79171">
        <ele>1455</ele>
        <time>2025-02-07T11:00:52Z</time>
      </trkpt>
      <trkpt lat="44.58638" lon="3.79165">
        <ele>1456</ele>
        <time>2025-02-07T11:01:06Z</time>
      </trkpt>
      <trkpt lat="44.58649" lon="3.79167">
        <ele>1456</ele>
        <time>2025-02-07T11:01:21Z</time>
      </trkpt>
      <trkpt lat="44.58683" lon="3.79182">
        <ele>1459</ele>
        <time>2025-02-07T11:02:08Z</time>
      </trkpt>
      <trkpt lat="44.58699" lon="3.79178">
        <ele>1461</ele>
        <time>2025-02-07T11:02:30Z</time>
      </trkpt>
      <trkpt lat="44.58708" lon="3.79171">
        <ele>1462</ele>
        <time>2025-02-07T11:02:44Z</time>
      </trkpt>
      <trkpt lat="44.58713" lon="3.79162">
        <ele>1463</ele>
        <time>2025-02-07T11:02:55Z</time>
      </trkpt>
      <trkpt lat="44.58732" lon="3.79151">
        <ele>1466</ele>
        <time>2025-02-07T11:03:22Z</time>
      </trkpt>
      <trkpt lat="44.58748" lon="3.79162">
        <ele>1467</ele>
        <time>2025-02-07T11:03:46Z</time>
      </trkpt>
      <trkpt lat="44.58773" lon="3.79193">
        <ele>1467</ele>
        <time>2025-02-07T11:04:30Z</time>
      </trkpt>
      <trkpt lat="44.58783" lon="3.79212">
        <ele>1466</ele>
        <time>2025-02-07T11:04:53Z</time>
      </trkpt>
      <trkpt lat="44.58819" lon="3.79243">
        <ele>1468</ele>
        <time>2025-02-07T11:05:49Z</time>
      </trkpt>
      <trkpt lat="44.58822" lon="3.7925">
        <ele>1468</ele>
        <time>2025-02-07T11:05:57Z</time>
      </trkpt>
      <trkpt lat="44.58829" lon="3.79256">
        <ele>1468</ele>
        <time>2025-02-07T11:06:08Z</time>
      </trkpt>
      <trkpt lat="44.58837" lon="3.79269">
        <ele>1468</ele>
        <time>2025-02-07T11:06:24Z</time>
      </trkpt>
      <trkpt lat="44.58842" lon="3.79264">
        <ele>1469</ele>
        <time>2025-02-07T11:06:32Z</time>
      </trkpt>
      <trkpt lat="44.58855" lon="3.79271">
        <ele>1470</ele>
        <time>2025-02-07T11:06:51Z</time>
      </trkpt>
      <trkpt lat="44.58871" lon="3.79264">
        <ele>1473</ele>
        <time>2025-02-07T11:07:13Z</time>
      </trkpt>
      <trkpt lat="44.58881" lon="3.79244">
        <ele>1475</ele>
        <time>2025-02-07T11:07:37Z</time>
      </trkpt>
      <trkpt lat="44.58884" lon="3.79242">
        <ele>1475</ele>
        <time>2025-02-07T11:07:41Z</time>
      </trkpt>
      <trkpt lat="44.58884" lon="3.79228">
        <ele>1476</ele>
        <time>2025-02-07T11:07:54Z</time>
      </trkpt>
      <trkpt lat="44.58877" lon="3.79192">
        <ele>1476</ele>
        <time>2025-02-07T11:08:30Z</time>
      </trkpt>
      <trkpt lat="44.58867" lon="3.79166">
        <ele>1476</ele>
        <time>2025-02-07T11:08:58Z</time>
      </trkpt>
      <trkpt lat="44.58853" lon="3.79107">
        <ele>1477</ele>
        <time>2025-02-07T11:09:57Z</time>
      </trkpt>
      <trkpt lat="44.58823" lon="3.78929">
        <ele>1481</ele>
        <time>2025-02-07T11:12:51Z</time>
      </trkpt>
      <trkpt lat="44.58801" lon="3.7886">
        <ele>1480</ele>
        <time>2025-02-07T11:14:03Z</time>
      </trkpt>
      <trkpt lat="44.58777" lon="3.78804">
        <ele>1479</ele>
        <time>2025-02-07T11:15:05Z</time>
      </trkpt>
      <trkpt lat="44.58743" lon="3.78735">
        <ele>1476</ele>
        <time>2025-02-07T11:16:25Z</time>
      </trkpt>
      <trkpt lat="44.58739" lon="3.78716">
        <ele>1476</ele>
        <time>2025-02-07T11:16:43Z</time>
      </trkpt>
      <trkpt lat="44.58726" lon="3.78683">
        <ele>1475</ele>
        <time>2025-02-07T11:17:19Z</time>
      </trkpt>
      <trkpt lat="44.58717" lon="3.78667">
        <ele>1474</ele>
        <time>2025-02-07T11:17:39Z</time>
      </trkpt>
      <trkpt lat="44.587" lon="3.78646">
        <ele>1470</ele>
        <time>2025-02-07T11:18:09Z</time>
      </trkpt>
      <trkpt lat="44.58659" lon="3.78611">
        <ele>1463</ele>
        <time>2025-02-07T11:19:13Z</time>
      </trkpt>
      <trkpt lat="44.58643" lon="3.78601">
        <ele>1461</ele>
        <time>2025-02-07T11:19:36Z</time>
      </trkpt>
      <trkpt lat="44.58615" lon="3.78566">
        <ele>1456</ele>
        <time>2025-02-07T11:20:26Z</time>
      </trkpt>
      <trkpt lat="44.586" lon="3.78552">
        <ele>1454</ele>
        <time>2025-02-07T11:20:50Z</time>
      </trkpt>
      <trkpt lat="44.58566" lon="3.7854">
        <ele>1451</ele>
        <time>2025-02-07T11:21:37Z</time>
      </trkpt>
      <trkpt lat="44.58552" lon="3.7853">
        <ele>1450</ele>
        <time>2025-02-07T11:21:58Z</time>
      </trkpt>
      <trkpt lat="44.58514" lon="3.78484">
        <ele>1445</ele>
        <time>2025-02-07T11:23:05Z</time>
      </trkpt>
      <trkpt lat="44.58491" lon="3.78466">
        <ele>1442</ele>
        <time>2025-02-07T11:23:40Z</time>
      </trkpt>
      <trkpt lat="44.5847" lon="3.78445">
        <ele>1440</ele>
        <time>2025-02-07T11:24:14Z</time>
      </trkpt>
      <trkpt lat="44.58461" lon="3.7844">
        <ele>1439</ele>
        <time>2025-02-07T11:24:27Z</time>
      </trkpt>
      <trkpt lat="44.58451" lon="3.78424">
        <ele>1437</ele>
        <time>2025-02-07T11:24:48Z</time>
      </trkpt>
      <trkpt lat="44.58441" lon="3.78414">
        <ele>1436</ele>
        <time>2025-02-07T11:25:04Z</time>
      </trkpt>
      <trkpt lat="44.58423" lon="3.78402">
        <ele>1434</ele>
        <time>2025-02-07T11:25:31Z</time>
      </trkpt>
      <trkpt lat="44.58404" lon="3.78378">
        <ele>1431</ele>
        <time>2025-02-07T11:26:05Z</time>
      </trkpt>
      <trkpt lat="44.58391" lon="3.7837">
        <ele>1430</ele>
        <time>2025-02-07T11:26:24Z</time>
      </trkpt>
      <trkpt lat="44.5838" lon="3.7835">
        <ele>1428</ele>
        <time>2025-02-07T11:26:48Z</time>
      </trkpt>
      <trkpt lat="44.58376" lon="3.78331">
        <ele>1428</ele>
        <time>2025-02-07T11:27:06Z</time>
      </trkpt>
      <trkpt lat="44.58381" lon="3.78314">
        <ele>1428</ele>
        <time>2025-02-07T11:27:24Z</time>
      </trkpt>
      <trkpt lat="44.58409" lon="3.78272">
        <ele>1429</ele>
        <time>2025-02-07T11:28:19Z</time>
      </trkpt>
      <trkpt lat="44.58446" lon="3.78244">
        <ele>1429</ele>
        <time>2025-02-07T11:29:15Z</time>
      </trkpt>
      <trkpt lat="44.58466" lon="3.78235">
        <ele>1429</ele>
        <time>2025-02-07T11:29:43Z</time>
      </trkpt>
      <trkpt lat="44.58472" lon="3.7823">
        <ele>1428</ele>
        <time>2025-02-07T11:29:52Z</time>
      </trkpt>
      <trkpt lat="44.58509" lon="3.78217">
        <ele>1426</ele>
        <time>2025-02-07T11:30:43Z</time>
      </trkpt>
      <trkpt lat="44.58516" lon="3.78219">
        <ele>1426</ele>
        <time>2025-02-07T11:30:53Z</time>
      </trkpt>
      <trkpt lat="44.58546" lon="3.78218">
        <ele>1423</ele>
        <time>2025-02-07T11:31:33Z</time>
      </trkpt>
      <trkpt lat="44.58581" lon="3.78231">
        <ele>1422</ele>
        <time>2025-02-07T11:32:21Z</time>
      </trkpt>
      <trkpt lat="44.58606" lon="3.7825">
        <ele>1421</ele>
        <time>2025-02-07T11:32:59Z</time>
      </trkpt>
      <trkpt lat="44.58609" lon="3.7826">
        <ele>1421</ele>
        <time>2025-02-07T11:33:09Z</time>
      </trkpt>
      <trkpt lat="44.58621" lon="3.78282">
        <ele>1422</ele>
        <time>2025-02-07T11:33:35Z</time>
      </trkpt>
      <trkpt lat="44.58627" lon="3.78286">
        <ele>1422</ele>
        <time>2025-02-07T11:33:44Z</time>
      </trkpt>
      <trkpt lat="44.58637" lon="3.78299">
        <ele>1422</ele>
        <time>2025-02-07T11:34:03Z</time>
      </trkpt>
      <trkpt lat="44.58644" lon="3.78301">
        <ele>1421</ele>
        <time>2025-02-07T11:34:12Z</time>
      </trkpt>
      <trkpt lat="44.58664" lon="3.78316">
        <ele>1421</ele>
        <time>2025-02-07T11:34:42Z</time>
      </trkpt>
      <trkpt lat="44.58672" lon="3.78319">
        <ele>1421</ele>
        <time>2025-02-07T11:34:53Z</time>
      </trkpt>
      <trkpt lat="44.58685" lon="3.78312">
        <ele>1419</ele>
        <time>2025-02-07T11:35:12Z</time>
      </trkpt>
      <trkpt lat="44.58689" lon="3.78324">
        <ele>1421</ele>
        <time>2025-02-07T11:35:25Z</time>
      </trkpt>
      <trkpt lat="44.58682" lon="3.78322">
        <ele>1421</ele>
        <time>2025-02-07T11:35:34Z</time>
      </trkpt>
      <trkpt lat="44.58665" lon="3.78308">
        <ele>1420</ele>
        <time>2025-02-07T11:36:00Z</time>
      </trkpt>
      <trkpt lat="44.58646" lon="3.78302">
        <ele>1421</ele>
        <time>2025-02-07T11:36:26Z</time>
      </trkpt>
      <trkpt lat="44.58612" lon="3.78263">
        <ele>1421</ele>
        <time>2025-02-07T11:37:25Z</time>
      </trkpt>
      <trkpt lat="44.58606" lon="3.78249">
        <ele>1421</ele>
        <time>2025-02-07T11:37:40Z</time>
      </trkpt>
      <trkpt lat="44.58608" lon="3.78249">
        <ele>1420</ele>
        <time>2025-02-07T11:37:43Z</time>
      </trkpt>
      <trkpt lat="44.58605" lon="3.78251">
        <ele>1421</ele>
        <time>2025-02-07T11:37:48Z</time>
      </trkpt>
      <trkpt lat="44.58611" lon="3.78263">
        <ele>1421</ele>
        <time>2025-02-07T11:38:01Z</time>
      </trkpt>
      <trkpt lat="44.58612" lon="3.78259">
        <ele>1421</ele>
        <time>2025-02-07T11:38:06Z</time>
      </trkpt>
      <trkpt lat="44.58604" lon="3.78244">
        <ele>1420</ele>
        <time>2025-02-07T11:38:23Z</time>
      </trkpt>
      <trkpt lat="44.58596" lon="3.78238">
        <ele>1421</ele>
        <time>2025-02-07T11:38:35Z</time>
      </trkpt>
      <trkpt lat="44.58579" lon="3.78232">
        <ele>1423</ele>
        <time>2025-02-07T11:38:59Z</time>
      </trkpt>
      <trkpt lat="44.58569" lon="3.78222">
        <ele>1422</ele>
        <time>2025-02-07T11:39:15Z</time>
      </trkpt>
      <trkpt lat="44.58529" lon="3.78218">
        <ele>1425</ele>
        <time>2025-02-07T11:40:09Z</time>
      </trkpt>
      <trkpt lat="44.58491" lon="3.78229">
        <ele>1429</ele>
        <time>2025-02-07T11:41:00Z</time>
      </trkpt>
      <trkpt lat="44.58485" lon="3.78235">
        <ele>1429</ele>
        <time>2025-02-07T11:41:10Z</time>
      </trkpt>
      <trkpt lat="44.58464" lon="3.78242">
        <ele>1430</ele>
        <time>2025-02-07T11:41:39Z</time>
      </trkpt>
      <trkpt lat="44.58432" lon="3.78257">
        <ele>1430</ele>
        <time>2025-02-07T11:42:24Z</time>
      </trkpt>
      <trkpt lat="44.58413" lon="3.78278">
        <ele>1429</ele>
        <time>2025-02-07T11:42:56Z</time>
      </trkpt>
      <trkpt lat="44.58384" lon="3.78323">
        <ele>1428</ele>
        <time>2025-02-07T11:43:54Z</time>
      </trkpt>
      <trkpt lat="44.58377" lon="3.78348">
        <ele>1428</ele>
        <time>2025-02-07T11:44:20Z</time>
      </trkpt>
      <trkpt lat="44.58379" lon="3.78357">
        <ele>1428</ele>
        <time>2025-02-07T11:44:29Z</time>
      </trkpt>
      <trkpt lat="44.58387" lon="3.78369">
        <ele>1429</ele>
        <time>2025-02-07T11:44:44Z</time>
      </trkpt>
      <trkpt lat="44.58421" lon="3.78397">
        <ele>1433</ele>
        <time>2025-02-07T11:45:37Z</time>
      </trkpt>
      <trkpt lat="44.58447" lon="3.7843">
        <ele>1437</ele>
        <time>2025-02-07T11:46:24Z</time>
      </trkpt>
      <trkpt lat="44.58468" lon="3.78449">
        <ele>1440</ele>
        <time>2025-02-07T11:46:57Z</time>
      </trkpt>
      <trkpt lat="44.58478" lon="3.78454">
        <ele>1441</ele>
        <time>2025-02-07T11:47:11Z</time>
      </trkpt>
      <trkpt lat="44.58506" lon="3.78481">
        <ele>1444</ele>
        <time>2025-02-07T11:47:56Z</time>
      </trkpt>
      <trkpt lat="44.58509" lon="3.78488">
        <ele>1445</ele>
        <time>2025-02-07T11:48:04Z</time>
      </trkpt>
      <trkpt lat="44.58534" lon="3.78507">
        <ele>1447</ele>
        <time>2025-02-07T11:48:42Z</time>
      </trkpt>
      <trkpt lat="44.58554" lon="3.78532">
        <ele>1450</ele>
        <time>2025-02-07T11:49:18Z</time>
      </trkpt>
      <trkpt lat="44.58568" lon="3.78543">
        <ele>1451</ele>
        <time>2025-02-07T11:49:39Z</time>
      </trkpt>
      <trkpt lat="44.586" lon="3.78557">
        <ele>1455</ele>
        <time>2025-02-07T11:50:24Z</time>
      </trkpt>
      <trkpt lat="44.58677" lon="3.78628">
        <ele>1466</ele>
        <time>2025-02-07T11:52:27Z</time>
      </trkpt>
      <trkpt lat="44.58692" lon="3.78637">
        <ele>1468</ele>
        <time>2025-02-07T11:52:49Z</time>
      </trkpt>
      <trkpt lat="44.587" lon="3.78646">
        <ele>1470</ele>
        <time>2025-02-07T11:53:02Z</time>
      </trkpt>
      <trkpt lat="44.5872" lon="3.78678">
        <ele>1474</ele>
        <time>2025-02-07T11:53:43Z</time>
      </trkpt>
      <trkpt lat="44.58733" lon="3.78713">
        <ele>1475</ele>
        <time>2025-02-07T11:54:20Z</time>
      </trkpt>
      <trkpt lat="44.58741" lon="3.78724">
        <ele>1476</ele>
        <time>2025-02-07T11:54:35Z</time>
      </trkpt>
      <trkpt lat="44.58754" lon="3.78759">
        <ele>1476</ele>
        <time>2025-02-07T11:55:13Z</time>
      </trkpt>
      <trkpt lat="44.58792" lon="3.78831">
        <ele>1480</ele>
        <time>2025-02-07T11:56:38Z</time>
      </trkpt>
      <trkpt lat="44.58814" lon="3.78892">
        <ele>1481</ele>
        <time>2025-02-07T11:57:43Z</time>
      </trkpt>
      <trkpt lat="44.58832" lon="3.78966">
        <ele>1480</ele>
        <time>2025-02-07T11:58:57Z</time>
      </trkpt>
      <trkpt lat="44.58831" lon="3.78973">
        <ele>1480</ele>
        <time>2025-02-07T11:59:04Z</time>
      </trkpt>
      <trkpt lat="44.58844" lon="3.79042">
        <ele>1478</ele>
        <time>2025-02-07T12:00:12Z</time>
      </trkpt>
      <trkpt lat="44.58843" lon="3.79056">
        <ele>1478</ele>
        <time>2025-02-07T12:00:25Z</time>
      </trkpt>
      <trkpt lat="44.58846" lon="3.79062">
        <ele>1478</ele>
        <time>2025-02-07T12:00:32Z</time>
      </trkpt>
      <trkpt lat="44.58852" lon="3.79108">
        <ele>1477</ele>
        <time>2025-02-07T12:01:17Z</time>
      </trkpt>
      <trkpt lat="44.58883" lon="3.79219">
        <ele>1476</ele>
        <time>2025-02-07T12:03:10Z</time>
      </trkpt>
      <trkpt lat="44.58889" lon="3.7921">
        <ele>1476</ele>
        <time>2025-02-07T12:03:22Z</time>
      </trkpt>
      <trkpt lat="44.58895" lon="3.79187">
        <ele>1477</ele>
        <time>2025-02-07T12:03:45Z</time>
      </trkpt>
      <trkpt lat="44.58894" lon="3.79178">
        <ele>1477</ele>
        <time>2025-02-07T12:03:54Z</time>
      </trkpt>
      <trkpt lat="44.58899" lon="3.7914">
        <ele>1478</ele>
        <time>2025-02-07T12:04:30Z</time>
      </trkpt>
      <trkpt lat="44.58898" lon="3.79093">
        <ele>1479</ele>
        <time>2025-02-07T12:05:15Z</time>
      </trkpt>
      <trkpt lat="44.58903" lon="3.79066">
        <ele>1480</ele>
        <time>2025-02-07T12:05:42Z</time>
      </trkpt>
      <trkpt lat="44.58919" lon="3.79051">
        <ele>1480</ele>
        <time>2025-02-07T12:06:07Z</time>
      </trkpt>
      <trkpt lat="44.58955" lon="3.79035">
        <ele>1481</ele>
        <time>2025-02-07T12:06:58Z</time>
      </trkpt>
      <trkpt lat="44.58973" lon="3.79066">
        <ele>1484</ele>
        <time>2025-02-07T12:07:36Z</time>
      </trkpt>
      <trkpt lat="44.58993" lon="3.79071">
        <ele>1485</ele>
        <time>2025-02-07T12:08:03Z</time>
      </trkpt>
      <trkpt lat="44.58999" lon="3.79083">
        <ele>1487</ele>
        <time>2025-02-07T12:08:17Z</time>
      </trkpt>
      <trkpt lat="44.59014" lon="3.79091">
        <ele>1488</ele>
        <time>2025-02-07T12:08:38Z</time>
      </trkpt>
      <trkpt lat="44.59019" lon="3.79098">
        <ele>1488</ele>
        <time>2025-02-07T12:08:47Z</time>
      </trkpt>
      <trkpt lat="44.59041" lon="3.79111">
        <ele>1490</ele>
        <time>2025-02-07T12:09:19Z</time>
      </trkpt>
      <trkpt lat="44.59062" lon="3.79137">
        <ele>1493</ele>
        <time>2025-02-07T12:09:57Z</time>
      </trkpt>
      <trkpt lat="44.5907" lon="3.79159">
        <ele>1495</ele>
        <time>2025-02-07T12:10:20Z</time>
      </trkpt>
      <trkpt lat="44.59084" lon="3.79178">
        <ele>1497</ele>
        <time>2025-02-07T12:10:46Z</time>
      </trkpt>
      <trkpt lat="44.59089" lon="3.79181">
        <ele>1497</ele>
        <time>2025-02-07T12:10:53Z</time>
      </trkpt>
      <trkpt lat="44.59095" lon="3.79192">
        <ele>1497</ele>
        <time>2025-02-07T12:11:07Z</time>
      </trkpt>
      <trkpt lat="44.59116" lon="3.79216">
        <ele>1498</ele>
        <time>2025-02-07T12:11:43Z</time>
      </trkpt>
      <trkpt lat="44.59133" lon="3.79227">
        <ele>1499</ele>
        <time>2025-02-07T12:12:08Z</time>
      </trkpt>
      <trkpt lat="44.59127" lon="3.79218">
        <ele>1498</ele>
        <time>2025-02-07T12:12:19Z</time>
      </trkpt>
      <trkpt lat="44.59107" lon="3.79205">
        <ele>1498</ele>
        <time>2025-02-07T12:12:49Z</time>
      </trkpt>
      <trkpt lat="44.59101" lon="3.79195">
        <ele>1497</ele>
        <time>2025-02-07T12:13:01Z</time>
      </trkpt>
      <trkpt lat="44.5908" lon="3.79175">
        <ele>1497</ele>
        <time>2025-02-07T12:13:35Z</time>
      </trkpt>
      <trkpt lat="44.59072" lon="3.79162">
        <ele>1496</ele>
        <time>2025-02-07T12:13:51Z</time>
      </trkpt>
      <trkpt lat="44.59067" lon="3.79144">
        <ele>1494</ele>
        <time>2025-02-07T12:14:10Z</time>
      </trkpt>
      <trkpt lat="44.5906" lon="3.79131">
        <ele>1492</ele>
        <time>2025-02-07T12:14:25Z</time>
      </trkpt>
      <trkpt lat="44.59037" lon="3.79108">
        <ele>1489</ele>
        <time>2025-02-07T12:15:03Z</time>
      </trkpt>
      <trkpt lat="44.59021" lon="3.79098">
        <ele>1488</ele>
        <time>2025-02-07T12:15:26Z</time>
      </trkpt>
      <trkpt lat="44.58999" lon="3.79079">
        <ele>1487</ele>
        <time>2025-02-07T12:16:01Z</time>
      </trkpt>
      <trkpt lat="44.58991" lon="3.79069">
        <ele>1485</ele>
        <time>2025-02-07T12:16:15Z</time>
      </trkpt>
      <trkpt lat="44.58974" lon="3.79066">
        <ele>1484</ele>
        <time>2025-02-07T12:16:38Z</time>
      </trkpt>
      <trkpt lat="44.58969" lon="3.79055">
        <ele>1483</ele>
        <time>2025-02-07T12:16:50Z</time>
      </trkpt>
      <trkpt lat="44.58954" lon="3.79037">
        <ele>1481</ele>
        <time>2025-02-07T12:17:17Z</time>
      </trkpt>
      <trkpt lat="44.58948" lon="3.79036">
        <ele>1481</ele>
        <time>2025-02-07T12:17:25Z</time>
      </trkpt>
      <trkpt lat="44.58946" lon="3.79041">
        <ele>1481</ele>
        <time>2025-02-07T12:17:30Z</time>
      </trkpt>
      <trkpt lat="44.58921" lon="3.79047">
        <ele>1480</ele>
        <time>2025-02-07T12:18:04Z</time>
      </trkpt>
      <trkpt lat="44.589" lon="3.79068">
        <ele>1479</ele>
        <time>2025-02-07T12:18:38Z</time>
      </trkpt>
      <trkpt lat="44.58897" lon="3.7908">
        <ele>1479</ele>
        <time>2025-02-07T12:18:51Z</time>
      </trkpt>
      <trkpt lat="44.58896" lon="3.79168">
        <ele>1478</ele>
        <time>2025-02-07T12:20:14Z</time>
      </trkpt>
      <trkpt lat="44.58886" lon="3.79233">
        <ele>1476</ele>
        <time>2025-02-07T12:21:17Z</time>
      </trkpt>
      <trkpt lat="44.58872" lon="3.7926">
        <ele>1473</ele>
        <time>2025-02-07T12:21:49Z</time>
      </trkpt>
      <trkpt lat="44.58853" lon="3.79271">
        <ele>1470</ele>
        <time>2025-02-07T12:22:17Z</time>
      </trkpt>
      <trkpt lat="44.58834" lon="3.79266">
        <ele>1468</ele>
        <time>2025-02-07T12:22:42Z</time>
      </trkpt>
      <trkpt lat="44.58818" lon="3.79268">
        <ele>1466</ele>
        <time>2025-02-07T12:23:04Z</time>
      </trkpt>
      <trkpt lat="44.58814" lon="3.79271">
        <ele>1465</ele>
        <time>2025-02-07T12:23:10Z</time>
      </trkpt>
      <trkpt lat="44.58795" lon="3.79302">
        <ele>1460</ele>
        <time>2025-02-07T12:23:49Z</time>
      </trkpt>
      <trkpt lat="44.58788" lon="3.79293">
        <ele>1460</ele>
        <time>2025-02-07T12:24:01Z</time>
      </trkpt>
      <trkpt lat="44.58778" lon="3.79297">
        <ele>1458</ele>
        <time>2025-02-07T12:24:15Z</time>
      </trkpt>
      <trkpt lat="44.58749" lon="3.79334">
        <ele>1450</ele>
        <time>2025-02-07T12:25:08Z</time>
      </trkpt>
      <trkpt lat="44.58733" lon="3.7935">
        <ele>1448</ele>
        <time>2025-02-07T12:25:34Z</time>
      </trkpt>
      <trkpt lat="44.58693" lon="3.79372">
        <ele>1442</ele>
        <time>2025-02-07T12:26:31Z</time>
      </trkpt>
      <trkpt lat="44.58681" lon="3.79375">
        <ele>1441</ele>
        <time>2025-02-07T12:26:47Z</time>
      </trkpt>
      <trkpt lat="44.58663" lon="3.7939">
        <ele>1437</ele>
        <time>2025-02-07T12:27:15Z</time>
      </trkpt>
      <trkpt lat="44.58646" lon="3.79398">
        <ele>1435</ele>
        <time>2025-02-07T12:27:39Z</time>
      </trkpt>
      <trkpt lat="44.58639" lon="3.79398">
        <ele>1435</ele>
        <time>2025-02-07T12:27:49Z</time>
      </trkpt>
      <trkpt lat="44.58619" lon="3.79412">
        <ele>1431</ele>
        <time>2025-02-07T12:28:18Z</time>
      </trkpt>
      <trkpt lat="44.58619" lon="3.79423">
        <ele>1430</ele>
        <time>2025-02-07T12:28:29Z</time>
      </trkpt>
      <trkpt lat="44.58614" lon="3.79434">
        <ele>1430</ele>
        <time>2025-02-07T12:28:41Z</time>
      </trkpt>
      <trkpt lat="44.58621" lon="3.79436">
        <ele>1431</ele>
        <time>2025-02-07T12:28:51Z</time>
      </trkpt>
      <trkpt lat="44.58611" lon="3.79444">
        <ele>1429</ele>
        <time>2025-02-07T12:29:06Z</time>
      </trkpt>
      <trkpt lat="44.58596" lon="3.79462">
        <ele>1427</ele>
        <time>2025-02-07T12:29:32Z</time>
      </trkpt>
      <trkpt lat="44.58587" lon="3.79465">
        <ele>1425</ele>
        <time>2025-02-07T12:29:45Z</time>
      </trkpt>
      <trkpt lat="44.5858" lon="3.79453">
        <ele>1425</ele>
        <time>2025-02-07T12:30:00Z</time>
      </trkpt>
      <trkpt lat="44.58569" lon="3.79451">
        <ele>1425</ele>
        <time>2025-02-07T12:30:14Z</time>
      </trkpt>
      <trkpt lat="44.58559" lon="3.79456">
        <ele>1424</ele>
        <time>2025-02-07T12:30:28Z</time>
      </trkpt>
      <trkpt lat="44.58553" lon="3.7947">
        <ele>1422</ele>
        <time>2025-02-07T12:30:44Z</time>
      </trkpt>
      <trkpt lat="44.58539" lon="3.79479">
        <ele>1420</ele>
        <time>2025-02-07T12:31:05Z</time>
      </trkpt>
      <trkpt lat="44.5854" lon="3.79486">
        <ele>1419</ele>
        <time>2025-02-07T12:31:11Z</time>
      </trkpt>
      <trkpt lat="44.58534" lon="3.79499">
        <ele>1417</ele>
        <time>2025-02-07T12:31:26Z</time>
      </trkpt>
      <trkpt lat="44.58525" lon="3.795">
        <ele>1415</ele>
        <time>2025-02-07T12:31:38Z</time>
      </trkpt>
      <trkpt lat="44.5852" lon="3.79524">
        <ele>1414</ele>
        <time>2025-02-07T12:32:02Z</time>
      </trkpt>
      <trkpt lat="44.58496" lon="3.79541">
        <ele>1410</ele>
        <time>2025-02-07T12:32:38Z</time>
      </trkpt>
      <trkpt lat="44.58482" lon="3.79576">
        <ele>1407</ele>
        <time>2025-02-07T12:33:16Z</time>
      </trkpt>
      <trkpt lat="44.58472" lon="3.79586">
        <ele>1406</ele>
        <time>2025-02-07T12:33:32Z</time>
      </trkpt>
      <trkpt lat="44.58471" lon="3.79604">
        <ele>1406</ele>
        <time>2025-02-07T12:33:49Z</time>
      </trkpt>
      <trkpt lat="44.58479" lon="3.79677">
        <ele>1409</ele>
        <time>2025-02-07T12:35:00Z</time>
      </trkpt>
      <trkpt lat="44.58475" lon="3.79704">
        <ele>1410</ele>
        <time>2025-02-07T12:35:26Z</time>
      </trkpt>
      <trkpt lat="44.58459" lon="3.79753">
        <ele>1409</ele>
        <time>2025-02-07T12:36:17Z</time>
      </trkpt>
      <trkpt lat="44.58457" lon="3.79768">
        <ele>1408</ele>
        <time>2025-02-07T12:36:32Z</time>
      </trkpt>
      <trkpt lat="44.5846" lon="3.79812">
        <ele>1409</ele>
        <time>2025-02-07T12:37:14Z</time>
      </trkpt>
      <trkpt lat="44.5847" lon="3.79843">
        <ele>1410</ele>
        <time>2025-02-07T12:37:46Z</time>
      </trkpt>
      <trkpt lat="44.58469" lon="3.7985">
        <ele>1409</ele>
        <time>2025-02-07T12:37:53Z</time>
      </trkpt>
      <trkpt lat="44.58485" lon="3.79894">
        <ele>1409</ele>
        <time>2025-02-07T12:38:40Z</time>
      </trkpt>
      <trkpt lat="44.5849" lon="3.799">
        <ele>1409</ele>
        <time>2025-02-07T12:38:48Z</time>
      </trkpt>
      <trkpt lat="44.58503" lon="3.79904">
        <ele>1411</ele>
        <time>2025-02-07T12:39:06Z</time>
      </trkpt>
      <trkpt lat="44.58525" lon="3.79901">
        <ele>1413</ele>
        <time>2025-02-07T12:39:36Z</time>
      </trkpt>
      <trkpt lat="44.58555" lon="3.79907">
        <ele>1416</ele>
        <time>2025-02-07T12:40:16Z</time>
      </trkpt>
      <trkpt lat="44.58572" lon="3.79922">
        <ele>1416</ele>
        <time>2025-02-07T12:40:43Z</time>
      </trkpt>
      <trkpt lat="44.58594" lon="3.79931">
        <ele>1417</ele>
        <time>2025-02-07T12:41:14Z</time>
      </trkpt>
      <trkpt lat="44.58608" lon="3.79941">
        <ele>1418</ele>
        <time>2025-02-07T12:41:34Z</time>
      </trkpt>
      <trkpt lat="44.58619" lon="3.79953">
        <ele>1417</ele>
        <time>2025-02-07T12:41:53Z</time>
      </trkpt>
      <trkpt lat="44.58639" lon="3.79963">
        <ele>1418</ele>
        <time>2025-02-07T12:42:21Z</time>
      </trkpt>
      <trkpt lat="44.58653" lon="3.79963">
        <ele>1420</ele>
        <time>2025-02-07T12:42:40Z</time>
      </trkpt>
      <trkpt lat="44.58689" lon="3.79976">
        <ele>1425</ele>
        <time>2025-02-07T12:43:30Z</time>
      </trkpt>
      <trkpt lat="44.58695" lon="3.79981">
        <ele>1425</ele>
        <time>2025-02-07T12:43:39Z</time>
      </trkpt>
      <trkpt lat="44.58707" lon="3.80004">
        <ele>1425</ele>
        <time>2025-02-07T12:44:06Z</time>
      </trkpt>
      <trkpt lat="44.58713" lon="3.80019">
        <ele>1426</ele>
        <time>2025-02-07T12:44:22Z</time>
      </trkpt>
      <trkpt lat="44.58717" lon="3.80038">
        <ele>1426</ele>
        <time>2025-02-07T12:44:41Z</time>
      </trkpt>
      <trkpt lat="44.58717" lon="3.8005">
        <ele>1425</ele>
        <time>2025-02-07T12:44:53Z</time>
      </trkpt>
      <trkpt lat="44.5872" lon="3.8006">
        <ele>1425</ele>
        <time>2025-02-07T12:45:03Z</time>
      </trkpt>
      <trkpt lat="44.58712" lon="3.80123">
        <ele>1421</ele>
        <time>2025-02-07T12:46:04Z</time>
      </trkpt>
      <trkpt lat="44.58714" lon="3.80148">
        <ele>1421</ele>
        <time>2025-02-07T12:46:28Z</time>
      </trkpt>
      <trkpt lat="44.5871" lon="3.80156">
        <ele>1420</ele>
        <time>2025-02-07T12:46:37Z</time>
      </trkpt>
      <trkpt lat="44.58673" lon="3.8019">
        <ele>1417</ele>
        <time>2025-02-07T12:47:36Z</time>
      </trkpt>
      <trkpt lat="44.58667" lon="3.80199">
        <ele>1416</ele>
        <time>2025-02-07T12:47:48Z</time>
      </trkpt>
      <trkpt lat="44.58621" lon="3.8024">
        <ele>1414</ele>
        <time>2025-02-07T12:49:00Z</time>
      </trkpt>
      <trkpt lat="44.58599" lon="3.80254">
        <ele>1413</ele>
        <time>2025-02-07T12:49:33Z</time>
      </trkpt>
      <trkpt lat="44.58597" lon="3.8026">
        <ele>1413</ele>
        <time>2025-02-07T12:49:39Z</time>
      </trkpt>
      <trkpt lat="44.58603" lon="3.80273">
        <ele>1412</ele>
        <time>2025-02-07T12:49:54Z</time>
      </trkpt>
      <trkpt lat="44.58611" lon="3.80277">
        <ele>1411</ele>
        <time>2025-02-07T12:50:05Z</time>
      </trkpt>
      <trkpt lat="44.58617" lon="3.80276">
        <ele>1411</ele>
        <time>2025-02-07T12:50:13Z</time>
      </trkpt>
      <trkpt lat="44.58658" lon="3.80251">
        <ele>1415</ele>
        <time>2025-02-07T12:51:13Z</time>
      </trkpt>
      <trkpt lat="44.5868" lon="3.80242">
        <ele>1414</ele>
        <time>2025-02-07T12:51:43Z</time>
      </trkpt>
      <trkpt lat="44.58716" lon="3.80236">
        <ele>1411</ele>
        <time>2025-02-07T12:52:32Z</time>
      </trkpt>
      <trkpt lat="44.58742" lon="3.80229">
        <ele>1411</ele>
        <time>2025-02-07T12:53:07Z</time>
      </trkpt>
      <trkpt lat="44.58762" lon="3.8022">
        <ele>1413</ele>
        <time>2025-02-07T12:53:35Z</time>
      </trkpt>
      <trkpt lat="44.58806" lon="3.80188">
        <ele>1421</ele>
        <time>2025-02-07T12:54:41Z</time>
      </trkpt>
      <trkpt lat="44.58817" lon="3.80193">
        <ele>1421</ele>
        <time>2025-02-07T12:54:57Z</time>
      </trkpt>
      <trkpt lat="44.5883" lon="3.80214">
        <ele>1420</ele>
        <time>2025-02-07T12:55:23Z</time>
      </trkpt>
      <trkpt lat="44.58807" lon="3.80249">
        <ele>1414</ele>
        <time>2025-02-07T12:56:08Z</time>
      </trkpt>
      <trkpt lat="44.58782" lon="3.80279">
        <ele>1410</ele>
        <time>2025-02-07T12:56:52Z</time>
      </trkpt>
      <trkpt lat="44.58758" lon="3.80313">
        <ele>1404</ele>
        <time>2025-02-07T12:57:38Z</time>
      </trkpt>
      <trkpt lat="44.58731" lon="3.80338">
        <ele>1401</ele>
        <time>2025-02-07T12:58:21Z</time>
      </trkpt>
      <trkpt lat="44.5872" lon="3.80353">
        <ele>1401</ele>
        <time>2025-02-07T12:58:41Z</time>
      </trkpt>
      <trkpt lat="44.58709" lon="3.80359">
        <ele>1400</ele>
        <time>2025-02-07T12:58:57Z</time>
      </trkpt>
      <trkpt lat="44.58704" lon="3.80374">
        <ele>1399</ele>
        <time>2025-02-07T12:59:13Z</time>
      </trkpt>
      <trkpt lat="44.58688" lon="3.804">
        <ele>1395</ele>
        <time>2025-02-07T12:59:45Z</time>
      </trkpt>
      <trkpt lat="44.58681" lon="3.80409">
        <ele>1393</ele>
        <time>2025-02-07T12:59:58Z</time>
      </trkpt>
      <trkpt lat="44.58668" lon="3.80419">
        <ele>1388</ele>
        <time>2025-02-07T13:00:18Z</time>
      </trkpt>
      <trkpt lat="44.5865" lon="3.80441">
        <ele>1389</ele>
        <time>2025-02-07T13:00:50Z</time>
      </trkpt>
      <trkpt lat="44.58638" lon="3.80469">
        <ele>1387</ele>
        <time>2025-02-07T13:01:21Z</time>
      </trkpt>
      <trkpt lat="44.58617" lon="3.8049">
        <ele>1384</ele>
        <time>2025-02-07T13:01:55Z</time>
      </trkpt>
      <trkpt lat="44.58606" lon="3.80506">
        <ele>1382</ele>
        <time>2025-02-07T13:02:16Z</time>
      </trkpt>
      <trkpt lat="44.58603" lon="3.80518">
        <ele>1382</ele>
        <time>2025-02-07T13:02:28Z</time>
      </trkpt>
      <trkpt lat="44.58584" lon="3.80531">
        <ele>1380</ele>
        <time>2025-02-07T13:02:57Z</time>
      </trkpt>
      <trkpt lat="44.58563" lon="3.80536">
        <ele>1379</ele>
        <time>2025-02-07T13:03:25Z</time>
      </trkpt>
      <trkpt lat="44.58557" lon="3.80543">
        <ele>1378</ele>
        <time>2025-02-07T13:03:35Z</time>
      </trkpt>
      <trkpt lat="44.58555" lon="3.8055">
        <ele>1378</ele>
        <time>2025-02-07T13:03:43Z</time>
      </trkpt>
      <trkpt lat="44.58535" lon="3.80572">
        <ele>1376</ele>
        <time>2025-02-07T13:04:17Z</time>
      </trkpt>
      <trkpt lat="44.58533" lon="3.80578">
        <ele>1375</ele>
        <time>2025-02-07T13:04:23Z</time>
      </trkpt>
      <trkpt lat="44.58517" lon="3.80592">
        <ele>1374</ele>
        <time>2025-02-07T13:04:48Z</time>
      </trkpt>
      <trkpt lat="44.58505" lon="3.80597">
        <ele>1374</ele>
        <time>2025-02-07T13:05:05Z</time>
      </trkpt>
      <trkpt lat="44.58498" lon="3.80596">
        <ele>1373</ele>
        <time>2025-02-07T13:05:14Z</time>
      </trkpt>
      <trkpt lat="44.58482" lon="3.80603">
        <ele>1372</ele>
        <time>2025-02-07T13:05:36Z</time>
      </trkpt>
      <trkpt lat="44.58469" lon="3.80604">
        <ele>1370</ele>
        <time>2025-02-07T13:05:54Z</time>
      </trkpt>
      <trkpt lat="44.58444" lon="3.80612">
        <ele>1368</ele>
        <time>2025-02-07T13:06:28Z</time>
      </trkpt>
      <trkpt lat="44.58383" lon="3.80615">
        <ele>1360</ele>
        <time>2025-02-07T13:07:50Z</time>
      </trkpt>
      <trkpt lat="44.58359" lon="3.80618">
        <ele>1357</ele>
        <time>2025-02-07T13:08:22Z</time>
      </trkpt>
      <trkpt lat="44.58353" lon="3.80621">
        <ele>1357</ele>
        <time>2025-02-07T13:08:30Z</time>
      </trkpt>
      <trkpt lat="44.58343" lon="3.8062">
        <ele>1355</ele>
        <time>2025-02-07T13:08:44Z</time>
      </trkpt>
      <trkpt lat="44.58323" lon="3.80631">
        <ele>1353</ele>
        <time>2025-02-07T13:09:12Z</time>
      </trkpt>
      <trkpt lat="44.58306" lon="3.80633">
        <ele>1350</ele>
        <time>2025-02-07T13:09:35Z</time>
      </trkpt>
      <trkpt lat="44.58282" lon="3.80651">
        <ele>1345</ele>
        <time>2025-02-07T13:10:11Z</time>
      </trkpt>
      <trkpt lat="44.58265" lon="3.80659">
        <ele>1341</ele>
        <time>2025-02-07T13:10:35Z</time>
      </trkpt>
      <trkpt lat="44.58262" lon="3.80663">
        <ele>1340</ele>
        <time>2025-02-07T13:10:41Z</time>
      </trkpt>
      <trkpt lat="44.58227" lon="3.80685">
        <ele>1335</ele>
        <time>2025-02-07T13:11:32Z</time>
      </trkpt>
      <trkpt lat="44.58221" lon="3.80693">
        <ele>1335</ele>
        <time>2025-02-07T13:11:43Z</time>
      </trkpt>
      <trkpt lat="44.58191" lon="3.8072">
        <ele>1332</ele>
        <time>2025-02-07T13:12:31Z</time>
      </trkpt>
      <trkpt lat="44.58176" lon="3.80728">
        <ele>1329</ele>
        <time>2025-02-07T13:12:52Z</time>
      </trkpt>
      <trkpt lat="44.58172" lon="3.80728">
        <ele>1328</ele>
        <time>2025-02-07T13:12:57Z</time>
      </trkpt>
      <trkpt lat="44.5812" lon="3.80759">
        <ele>1318</ele>
        <time>2025-02-07T13:14:13Z</time>
      </trkpt>
      <trkpt lat="44.581" lon="3.80767">
        <ele>1315</ele>
        <time>2025-02-07T13:14:40Z</time>
      </trkpt>
      <trkpt lat="44.5808" lon="3.80771">
        <ele>1312</ele>
        <time>2025-02-07T13:15:07Z</time>
      </trkpt>
      <trkpt lat="44.5805" lon="3.80768">
        <ele>1309</ele>
        <time>2025-02-07T13:15:47Z</time>
      </trkpt>
      <trkpt lat="44.58019" lon="3.80761">
        <ele>1305</ele>
        <time>2025-02-07T13:16:29Z</time>
      </trkpt>
      <trkpt lat="44.58014" lon="3.80757">
        <ele>1303</ele>
        <time>2025-02-07T13:16:37Z</time>
      </trkpt>
      <trkpt lat="44.57981" lon="3.80745">
        <ele>1301</ele>
        <time>2025-02-07T13:17:23Z</time>
      </trkpt>
      <trkpt lat="44.57945" lon="3.80723">
        <ele>1300</ele>
        <time>2025-02-07T13:18:15Z</time>
      </trkpt>
      <trkpt lat="44.57922" lon="3.80705">
        <ele>1296</ele>
        <time>2025-02-07T13:18:50Z</time>
      </trkpt>
      <trkpt lat="44.57914" lon="3.80692">
        <ele>1293</ele>
        <time>2025-02-07T13:19:06Z</time>
      </trkpt>
      <trkpt lat="44.57895" lon="3.80673">
        <ele>1289</ele>
        <time>2025-02-07T13:19:38Z</time>
      </trkpt>
      <trkpt lat="44.57876" lon="3.8066">
        <ele>1288</ele>
        <time>2025-02-07T13:20:06Z</time>
      </trkpt>
      <trkpt lat="44.57858" lon="3.80652">
        <ele>1287</ele>
        <time>2025-02-07T13:20:31Z</time>
      </trkpt>
      <trkpt lat="44.57816" lon="3.80619">
        <ele>1279</ele>
        <time>2025-02-07T13:21:35Z</time>
      </trkpt>
      <trkpt lat="44.57806" lon="3.80615">
        <ele>1277</ele>
        <time>2025-02-07T13:21:49Z</time>
      </trkpt>
      <trkpt lat="44.57787" lon="3.80615">
        <ele>1276</ele>
        <time>2025-02-07T13:22:14Z</time>
      </trkpt>
      <trkpt lat="44.57772" lon="3.80623">
        <ele>1276</ele>
        <time>2025-02-07T13:22:36Z</time>
      </trkpt>
      <trkpt lat="44.57753" lon="3.80629">
        <ele>1276</ele>
        <time>2025-02-07T13:23:02Z</time>
      </trkpt>
      <trkpt lat="44.5773" lon="3.80622">
        <ele>1272</ele>
        <time>2025-02-07T13:23:33Z</time>
      </trkpt>
      <trkpt lat="44.57708" lon="3.80631">
        <ele>1271</ele>
        <time>2025-02-07T13:24:04Z</time>
      </trkpt>
      <trkpt lat="44.57691" lon="3.80643">
        <ele>1270</ele>
        <time>2025-02-07T13:24:29Z</time>
      </trkpt>
      <trkpt lat="44.57635" lon="3.80665">
        <ele>1264</ele>
        <time>2025-02-07T13:25:47Z</time>
      </trkpt>
      <trkpt lat="44.57608" lon="3.80682">
        <ele>1263</ele>
        <time>2025-02-07T13:26:26Z</time>
      </trkpt>
      <trkpt lat="44.57597" lon="3.80684">
        <ele>1262</ele>
        <time>2025-02-07T13:26:41Z</time>
      </trkpt>
      <trkpt lat="44.57569" lon="3.80704">
        <ele>1262</ele>
        <time>2025-02-07T13:27:23Z</time>
      </trkpt>
      <trkpt lat="44.57556" lon="3.80707">
        <ele>1261</ele>
        <time>2025-02-07T13:27:41Z</time>
      </trkpt>
      <trkpt lat="44.57548" lon="3.80713">
        <ele>1261</ele>
        <time>2025-02-07T13:27:53Z</time>
      </trkpt>
      <trkpt lat="44.5752" lon="3.80719">
        <ele>1259</ele>
        <time>2025-02-07T13:28:30Z</time>
      </trkpt>
      <trkpt lat="44.57512" lon="3.80728">
        <ele>1259</ele>
        <time>2025-02-07T13:28:44Z</time>
      </trkpt>
      <trkpt lat="44.57488" lon="3.80737">
        <ele>1257</ele>
        <time>2025-02-07T13:29:17Z</time>
      </trkpt>
      <trkpt lat="44.57481" lon="3.80743">
        <ele>1257</ele>
        <time>2025-02-07T13:29:28Z</time>
      </trkpt>
      <trkpt lat="44.57463" lon="3.80751">
        <ele>1256</ele>
        <time>2025-02-07T13:29:53Z</time>
      </trkpt>
      <trkpt lat="44.57456" lon="3.80759">
        <ele>1256</ele>
        <time>2025-02-07T13:30:06Z</time>
      </trkpt>
      <trkpt lat="44.57441" lon="3.80768">
        <ele>1257</ele>
        <time>2025-02-07T13:30:27Z</time>
      </trkpt>
      <trkpt lat="44.57433" lon="3.80776">
        <ele>1257</ele>
        <time>2025-02-07T13:30:40Z</time>
      </trkpt>
      <trkpt lat="44.57421" lon="3.80781">
        <ele>1257</ele>
        <time>2025-02-07T13:30:57Z</time>
      </trkpt>
      <trkpt lat="44.57417" lon="3.8078">
        <ele>1256</ele>
        <time>2025-02-07T13:31:03Z</time>
      </trkpt>
      <trkpt lat="44.57411" lon="3.80783">
        <ele>1256</ele>
        <time>2025-02-07T13:31:11Z</time>
      </trkpt>
      <trkpt lat="44.57383" lon="3.80778">
        <ele>1254</ele>
        <time>2025-02-07T13:31:49Z</time>
      </trkpt>
      <trkpt lat="44.57372" lon="3.80779">
        <ele>1253</ele>
        <time>2025-02-07T13:32:03Z</time>
      </trkpt>
      <trkpt lat="44.57346" lon="3.80789">
        <ele>1252</ele>
        <time>2025-02-07T13:32:39Z</time>
      </trkpt>
      <trkpt lat="44.57341" lon="3.80789">
        <ele>1251</ele>
        <time>2025-02-07T13:32:46Z</time>
      </trkpt>
      <trkpt lat="44.57329" lon="3.80797">
        <ele>1251</ele>
        <time>2025-02-07T13:33:04Z</time>
      </trkpt>
      <trkpt lat="44.57315" lon="3.80802">
        <ele>1249</ele>
        <time>2025-02-07T13:33:23Z</time>
      </trkpt>
      <trkpt lat="44.57293" lon="3.80818">
        <ele>1248</ele>
        <time>2025-02-07T13:33:56Z</time>
      </trkpt>
      <trkpt lat="44.57245" lon="3.80826">
        <ele>1243</ele>
        <time>2025-02-07T13:35:01Z</time>
      </trkpt>
      <trkpt lat="44.57222" lon="3.80847">
        <ele>1244</ele>
        <time>2025-02-07T13:35:37Z</time>
      </trkpt>
      <trkpt lat="44.5719" lon="3.80865">
        <ele>1243</ele>
        <time>2025-02-07T13:36:23Z</time>
      </trkpt>
      <trkpt lat="44.57153" lon="3.8088">
        <ele>1242</ele>
        <time>2025-02-07T13:37:15Z</time>
      </trkpt>
      <trkpt lat="44.57139" lon="3.80883">
        <ele>1242</ele>
        <time>2025-02-07T13:37:34Z</time>
      </trkpt>
      <trkpt lat="44.57137" lon="3.80877">
        <ele>1243</ele>
        <time>2025-02-07T13:37:40Z</time>
      </trkpt>
      <trkpt lat="44.57129" lon="3.80874">
        <ele>1243</ele>
        <time>2025-02-07T13:37:51Z</time>
      </trkpt>
      <trkpt lat="44.57126" lon="3.80868">
        <ele>1243</ele>
        <time>2025-02-07T13:37:58Z</time>
      </trkpt>
      <trkpt lat="44.57117" lon="3.8087">
        <ele>1244</ele>
        <time>2025-02-07T13:38:10Z</time>
      </trkpt>
      <trkpt lat="44.57107" lon="3.80877">
        <ele>1243</ele>
        <time>2025-02-07T13:38:25Z</time>
      </trkpt>
      <trkpt lat="44.57082" lon="3.80919">
        <ele>1239</ele>
        <time>2025-02-07T13:39:17Z</time>
      </trkpt>
      <trkpt lat="44.57057" lon="3.80947">
        <ele>1244</ele>
        <time>2025-02-07T13:40:00Z</time>
      </trkpt>
      <trkpt lat="44.57041" lon="3.80978">
        <ele>1245</ele>
        <time>2025-02-07T13:40:36Z</time>
      </trkpt>
      <trkpt lat="44.57032" lon="3.8102">
        <ele>1243</ele>
        <time>2025-02-07T13:41:18Z</time>
      </trkpt>
      <trkpt lat="44.57025" lon="3.81032">
        <ele>1243</ele>
        <time>2025-02-07T13:41:32Z</time>
      </trkpt>
      <trkpt lat="44.57019" lon="3.81091">
        <ele>1239</ele>
        <time>2025-02-07T13:42:29Z</time>
      </trkpt>
      <trkpt lat="44.56998" lon="3.8115">
        <ele>1237</ele>
        <time>2025-02-07T13:43:32Z</time>
      </trkpt>
      <trkpt lat="44.57002" lon="3.81159">
        <ele>1236</ele>
        <time>2025-02-07T13:43:42Z</time>
      </trkpt>
      <trkpt lat="44.56998" lon="3.81195">
        <ele>1238</ele>
        <time>2025-02-07T13:44:17Z</time>
      </trkpt>
      <trkpt lat="44.57002" lon="3.81201">
        <ele>1238</ele>
        <time>2025-02-07T13:44:24Z</time>
      </trkpt>
      <trkpt lat="44.57002" lon="3.81208">
        <ele>1239</ele>
        <time>2025-02-07T13:44:31Z</time>
      </trkpt>
      <trkpt lat="44.57015" lon="3.8123">
        <ele>1239</ele>
        <time>2025-02-07T13:44:58Z</time>
      </trkpt>
      <trkpt lat="44.57038" lon="3.8128">
        <ele>1240</ele>
        <time>2025-02-07T13:45:55Z</time>
      </trkpt>
      <trkpt lat="44.57056" lon="3.81306">
        <ele>1238</ele>
        <time>2025-02-07T13:46:29Z</time>
      </trkpt>
      <trkpt lat="44.57061" lon="3.81309">
        <ele>1237</ele>
        <time>2025-02-07T13:46:36Z</time>
      </trkpt>
      <trkpt lat="44.57072" lon="3.81344">
        <ele>1235</ele>
        <time>2025-02-07T13:47:13Z</time>
      </trkpt>
      <trkpt lat="44.57083" lon="3.81362">
        <ele>1233</ele>
        <time>2025-02-07T13:47:35Z</time>
      </trkpt>
      <trkpt lat="44.57082" lon="3.81369">
        <ele>1234</ele>
        <time>2025-02-07T13:47:42Z</time>
      </trkpt>
      <trkpt lat="44.57088" lon="3.81389">
        <ele>1234</ele>
        <time>2025-02-07T13:48:03Z</time>
      </trkpt>
      <trkpt lat="44.57088" lon="3.81405">
        <ele>1235</ele>
        <time>2025-02-07T13:48:18Z</time>
      </trkpt>
      <trkpt lat="44.57093" lon="3.81418">
        <ele>1235</ele>
        <time>2025-02-07T13:48:32Z</time>
      </trkpt>
      <trkpt lat="44.5709" lon="3.81418">
        <ele>1236</ele>
        <time>2025-02-07T13:48:36Z</time>
      </trkpt>
      <trkpt lat="44.57096" lon="3.81425">
        <ele>1235</ele>
        <time>2025-02-07T13:48:46Z</time>
      </trkpt>
      <trkpt lat="44.57101" lon="3.81439">
        <ele>1235</ele>
        <time>2025-02-07T13:49:01Z</time>
      </trkpt>
      <trkpt lat="44.571" lon="3.81447">
        <ele>1235</ele>
        <time>2025-02-07T13:49:09Z</time>
      </trkpt>
      <trkpt lat="44.57105" lon="3.81456">
        <ele>1235</ele>
        <time>2025-02-07T13:49:20Z</time>
      </trkpt>
      <trkpt lat="44.57106" lon="3.81471">
        <ele>1235</ele>
        <time>2025-02-07T13:49:34Z</time>
      </trkpt>
      <trkpt lat="44.57116" lon="3.81516">
        <ele>1233</ele>
        <time>2025-02-07T13:50:19Z</time>
      </trkpt>
      <trkpt lat="44.57121" lon="3.81521">
        <ele>1232</ele>
        <time>2025-02-07T13:50:27Z</time>
      </trkpt>
      <trkpt lat="44.57126" lon="3.81534">
        <ele>1231</ele>
        <time>2025-02-07T13:50:41Z</time>
      </trkpt>
      <trkpt lat="44.57124" lon="3.81535">
        <ele>1231</ele>
        <time>2025-02-07T13:50:44Z</time>
      </trkpt>
      <trkpt lat="44.57121" lon="3.81532">
        <ele>1232</ele>
        <time>2025-02-07T13:50:49Z</time>
      </trkpt>
      <trkpt lat="44.57121" lon="3.81524">
        <ele>1232</ele>
        <time>2025-02-07T13:50:57Z</time>
      </trkpt>
      <trkpt lat="44.57108" lon="3.81488">
        <ele>1235</ele>
        <time>2025-02-07T13:51:35Z</time>
      </trkpt>
      <trkpt lat="44.57108" lon="3.81479">
        <ele>1235</ele>
        <time>2025-02-07T13:51:44Z</time>
      </trkpt>
      <trkpt lat="44.57112" lon="3.81469">
        <ele>1234</ele>
        <time>2025-02-07T13:51:54Z</time>
      </trkpt>
      <trkpt lat="44.57098" lon="3.81433">
        <ele>1235</ele>
        <time>2025-02-07T13:52:33Z</time>
      </trkpt>
      <trkpt lat="44.57095" lon="3.81441">
        <ele>1236</ele>
        <time>2025-02-07T13:52:42Z</time>
      </trkpt>
      <trkpt lat="44.57094" lon="3.81461">
        <ele>1236</ele>
        <time>2025-02-07T13:53:01Z</time>
      </trkpt>
      <trkpt lat="44.5709" lon="3.81469">
        <ele>1237</ele>
        <time>2025-02-07T13:53:10Z</time>
      </trkpt>
      <trkpt lat="44.571" lon="3.81513">
        <ele>1236</ele>
        <time>2025-02-07T13:53:54Z</time>
      </trkpt>
      <trkpt lat="44.57099" lon="3.81523">
        <ele>1236</ele>
        <time>2025-02-07T13:54:04Z</time>
      </trkpt>
      <trkpt lat="44.57091" lon="3.81539">
        <ele>1236</ele>
        <time>2025-02-07T13:54:23Z</time>
      </trkpt>
      <trkpt lat="44.57089" lon="3.81549">
        <ele>1236</ele>
        <time>2025-02-07T13:54:32Z</time>
      </trkpt>
      <trkpt lat="44.57084" lon="3.81607">
        <ele>1235</ele>
        <time>2025-02-07T13:55:28Z</time>
      </trkpt>
      <trkpt lat="44.57081" lon="3.81614">
        <ele>1235</ele>
        <time>2025-02-07T13:55:36Z</time>
      </trkpt>
      <trkpt lat="44.57081" lon="3.81622">
        <ele>1235</ele>
        <time>2025-02-07T13:55:43Z</time>
      </trkpt>
      <trkpt lat="44.57077" lon="3.81628">
        <ele>1236</ele>
        <time>2025-02-07T13:55:51Z</time>
      </trkpt>
      <trkpt lat="44.57073" lon="3.81643">
        <ele>1237</ele>
        <time>2025-02-07T13:56:06Z</time>
      </trkpt>
      <trkpt lat="44.57075" lon="3.81651">
        <ele>1236</ele>
        <time>2025-02-07T13:56:14Z</time>
      </trkpt>
      <trkpt lat="44.57061" lon="3.81683">
        <ele>1239</ele>
        <time>2025-02-07T13:56:50Z</time>
      </trkpt>
      <trkpt lat="44.5705" lon="3.817">
        <ele>1242</ele>
        <time>2025-02-07T13:57:12Z</time>
      </trkpt>
      <trkpt lat="44.5705" lon="3.81707">
        <ele>1242</ele>
        <time>2025-02-07T13:57:19Z</time>
      </trkpt>
      <trkpt lat="44.5703" lon="3.81746">
        <ele>1245</ele>
        <time>2025-02-07T13:58:04Z</time>
      </trkpt>
      <trkpt lat="44.57028" lon="3.81757">
        <ele>1245</ele>
        <time>2025-02-07T13:58:15Z</time>
      </trkpt>
      <trkpt lat="44.57022" lon="3.81768">
        <ele>1246</ele>
        <time>2025-02-07T13:58:28Z</time>
      </trkpt>
      <trkpt lat="44.57017" lon="3.81789">
        <ele>1246</ele>
        <time>2025-02-07T13:58:49Z</time>
      </trkpt>
      <trkpt lat="44.57018" lon="3.81802">
        <ele>1245</ele>
        <time>2025-02-07T13:59:02Z</time>
      </trkpt>
      <trkpt lat="44.57011" lon="3.81819">
        <ele>1246</ele>
        <time>2025-02-07T13:59:20Z</time>
      </trkpt>
      <trkpt lat="44.57005" lon="3.81847">
        <ele>1246</ele>
        <time>2025-02-07T13:59:48Z</time>
      </trkpt>
      <trkpt lat="44.56999" lon="3.81858">
        <ele>1247</ele>
        <time>2025-02-07T14:00:01Z</time>
      </trkpt>
      <trkpt lat="44.56989" lon="3.81897">
        <ele>1248</ele>
        <time>2025-02-07T14:00:41Z</time>
      </trkpt>
      <trkpt lat="44.56977" lon="3.8192">
        <ele>1250</ele>
        <time>2025-02-07T14:01:08Z</time>
      </trkpt>
      <trkpt lat="44.56977" lon="3.81934">
        <ele>1249</ele>
        <time>2025-02-07T14:01:21Z</time>
      </trkpt>
      <trkpt lat="44.56968" lon="3.81963">
        <ele>1249</ele>
        <time>2025-02-07T14:01:51Z</time>
      </trkpt>
      <trkpt lat="44.56963" lon="3.81975">
        <ele>1250</ele>
        <time>2025-02-07T14:02:04Z</time>
      </trkpt>
      <trkpt lat="44.56958" lon="3.81979">
        <ele>1251</ele>
        <time>2025-02-07T14:02:12Z</time>
      </trkpt>
      <trkpt lat="44.56951" lon="3.81999">
        <ele>1252</ele>
        <time>2025-02-07T14:02:33Z</time>
      </trkpt>
      <trkpt lat="44.56941" lon="3.82042">
        <ele>1254</ele>
        <time>2025-02-07T14:03:16Z</time>
      </trkpt>
      <trkpt lat="44.5692" lon="3.82073">
        <ele>1258</ele>
        <time>2025-02-07T14:03:57Z</time>
      </trkpt>
      <trkpt lat="44.56918" lon="3.82085">
        <ele>1259</ele>
        <time>2025-02-07T14:04:09Z</time>
      </trkpt>
      <trkpt lat="44.56911" lon="3.82096">
        <ele>1260</ele>
        <time>2025-02-07T14:04:23Z</time>
      </trkpt>
      <trkpt lat="44.56902" lon="3.82128">
        <ele>1261</ele>
        <time>2025-02-07T14:04:55Z</time>
      </trkpt>
      <trkpt lat="44.5689" lon="3.82157">
        <ele>1262</ele>
        <time>2025-02-07T14:05:27Z</time>
      </trkpt>
      <trkpt lat="44.56879" lon="3.82179">
        <ele>1264</ele>
        <time>2025-02-07T14:05:53Z</time>
      </trkpt>
      <trkpt lat="44.56874" lon="3.82183">
        <ele>1265</ele>
        <time>2025-02-07T14:06:01Z</time>
      </trkpt>
      <trkpt lat="44.5688" lon="3.82186">
        <ele>1264</ele>
        <time>2025-02-07T14:06:09Z</time>
      </trkpt>
      <trkpt lat="44.56878" lon="3.82195">
        <ele>1265</ele>
        <time>2025-02-07T14:06:18Z</time>
      </trkpt>
      <trkpt lat="44.56879" lon="3.82206">
        <ele>1265</ele>
        <time>2025-02-07T14:06:29Z</time>
      </trkpt>
      <trkpt lat="44.5686" lon="3.82266">
        <ele>1268</ele>
        <time>2025-02-07T14:07:31Z</time>
      </trkpt>
      <trkpt lat="44.5686" lon="3.82281">
        <ele>1268</ele>
        <time>2025-02-07T14:07:45Z</time>
      </trkpt>
      <trkpt lat="44.56855" lon="3.82297">
        <ele>1269</ele>
        <time>2025-02-07T14:08:02Z</time>
      </trkpt>
      <trkpt lat="44.56859" lon="3.82318">
        <ele>1268</ele>
        <time>2025-02-07T14:08:22Z</time>
      </trkpt>
      <trkpt lat="44.56857" lon="3.82334">
        <ele>1268</ele>
        <time>2025-02-07T14:08:38Z</time>
      </trkpt>
      <trkpt lat="44.5685" lon="3.82373">
        <ele>1269</ele>
        <time>2025-02-07T14:09:16Z</time>
      </trkpt>
      <trkpt lat="44.56832" lon="3.82441">
        <ele>1271</ele>
        <time>2025-02-07T14:10:25Z</time>
      </trkpt>
      <trkpt lat="44.56832" lon="3.82454">
        <ele>1271</ele>
        <time>2025-02-07T14:10:37Z</time>
      </trkpt>
      <trkpt lat="44.56828" lon="3.82458">
        <ele>1271</ele>
        <time>2025-02-07T14:10:44Z</time>
      </trkpt>
      <trkpt lat="44.56813" lon="3.82526">
        <ele>1271</ele>
        <time>2025-02-07T14:11:52Z</time>
      </trkpt>
      <trkpt lat="44.56801" lon="3.82552">
        <ele>1272</ele>
        <time>2025-02-07T14:12:21Z</time>
      </trkpt>
      <trkpt lat="44.56792" lon="3.8258">
        <ele>1273</ele>
        <time>2025-02-07T14:12:50Z</time>
      </trkpt>
      <trkpt lat="44.56784" lon="3.82586">
        <ele>1273</ele>
        <time>2025-02-07T14:13:02Z</time>
      </trkpt>
      <trkpt lat="44.5677" lon="3.82591">
        <ele>1273</ele>
        <time>2025-02-07T14:13:22Z</time>
      </trkpt>
      <trkpt lat="44.56753" lon="3.82593">
        <ele>1272</ele>
        <time>2025-02-07T14:13:45Z</time>
      </trkpt>
      <trkpt lat="44.56745" lon="3.82589">
        <ele>1272</ele>
        <time>2025-02-07T14:13:56Z</time>
      </trkpt>
      <trkpt lat="44.56733" lon="3.82591">
        <ele>1271</ele>
        <time>2025-02-07T14:14:12Z</time>
      </trkpt>
      <trkpt lat="44.56725" lon="3.82585">
        <ele>1270</ele>
        <time>2025-02-07T14:14:24Z</time>
      </trkpt>
      <trkpt lat="44.56694" lon="3.82577">
        <ele>1268</ele>
        <time>2025-02-07T14:15:06Z</time>
      </trkpt>
      <trkpt lat="44.56643" lon="3.82576">
        <ele>1264</ele>
        <time>2025-02-07T14:16:14Z</time>
      </trkpt>
      <trkpt lat="44.56625" lon="3.82577">
        <ele>1263</ele>
        <time>2025-02-07T14:16:38Z</time>
      </trkpt>
      <trkpt lat="44.56573" lon="3.82587">
        <ele>1260</ele>
        <time>2025-02-07T14:17:48Z</time>
      </trkpt>
      <trkpt lat="44.56511" lon="3.82595">
        <ele>1257</ele>
        <time>2025-02-07T14:19:11Z</time>
      </trkpt>
      <trkpt lat="44.5648" lon="3.82605">
        <ele>1255</ele>
        <time>2025-02-07T14:19:54Z</time>
      </trkpt>
      <trkpt lat="44.56452" lon="3.8262">
        <ele>1253</ele>
        <time>2025-02-07T14:20:34Z</time>
      </trkpt>
      <trkpt lat="44.56438" lon="3.82621">
        <ele>1252</ele>
        <time>2025-02-07T14:20:53Z</time>
      </trkpt>
      <trkpt lat="44.56384" lon="3.82638">
        <ele>1247</ele>
        <time>2025-02-07T14:22:06Z</time>
      </trkpt>
      <trkpt lat="44.5636" lon="3.82643">
        <ele>1244</ele>
        <time>2025-02-07T14:22:39Z</time>
      </trkpt>
      <trkpt lat="44.56355" lon="3.82647">
        <ele>1243</ele>
        <time>2025-02-07T14:22:46Z</time>
      </trkpt>
      <trkpt lat="44.56323" lon="3.82656">
        <ele>1240</ele>
        <time>2025-02-07T14:23:30Z</time>
      </trkpt>
      <trkpt lat="44.56285" lon="3.82662">
        <ele>1240</ele>
        <time>2025-02-07T14:24:21Z</time>
      </trkpt>
      <trkpt lat="44.56277" lon="3.82666">
        <ele>1240</ele>
        <time>2025-02-07T14:24:32Z</time>
      </trkpt>
      <trkpt lat="44.56242" lon="3.82675">
        <ele>1239</ele>
        <time>2025-02-07T14:25:20Z</time>
      </trkpt>
      <trkpt lat="44.56238" lon="3.82678">
        <ele>1239</ele>
        <time>2025-02-07T14:25:26Z</time>
      </trkpt>
      <trkpt lat="44.56215" lon="3.82681">
        <ele>1239</ele>
        <time>2025-02-07T14:25:57Z</time>
      </trkpt>
      <trkpt lat="44.56201" lon="3.82686">
        <ele>1239</ele>
        <time>2025-02-07T14:26:16Z</time>
      </trkpt>
      <trkpt lat="44.56134" lon="3.82689">
        <ele>1238</ele>
        <time>2025-02-07T14:27:45Z</time>
      </trkpt>
      <trkpt lat="44.56092" lon="3.82703">
        <ele>1237</ele>
        <time>2025-02-07T14:28:43Z</time>
      </trkpt>
      <trkpt lat="44.56083" lon="3.82709">
        <ele>1237</ele>
        <time>2025-02-07T14:28:56Z</time>
      </trkpt>
      <trkpt lat="44.56073" lon="3.82725">
        <ele>1236</ele>
        <time>2025-02-07T14:29:17Z</time>
      </trkpt>
      <trkpt lat="44.56066" lon="3.82742">
        <ele>1236</ele>
        <time>2025-02-07T14:29:35Z</time>
      </trkpt>
      <trkpt lat="44.56063" lon="3.82758">
        <ele>1236</ele>
        <time>2025-02-07T14:29:51Z</time>
      </trkpt>
      <trkpt lat="44.56074" lon="3.82819">
        <ele>1234</ele>
        <time>2025-02-07T14:30:51Z</time>
      </trkpt>
      <trkpt lat="44.5608" lon="3.82828">
        <ele>1234</ele>
        <time>2025-02-07T14:31:03Z</time>
      </trkpt>
      <trkpt lat="44.5609" lon="3.82872">
        <ele>1232</ele>
        <time>2025-02-07T14:31:46Z</time>
      </trkpt>
      <trkpt lat="44.56107" lon="3.82909">
        <ele>1232</ele>
        <time>2025-02-07T14:32:28Z</time>
      </trkpt>
      <trkpt lat="44.56103" lon="3.82922">
        <ele>1231</ele>
        <time>2025-02-07T14:32:42Z</time>
      </trkpt>
      <trkpt lat="44.56098" lon="3.82923">
        <ele>1231</ele>
        <time>2025-02-07T14:32:49Z</time>
      </trkpt>
      <trkpt lat="44.56094" lon="3.8292">
        <ele>1231</ele>
        <time>2025-02-07T14:32:55Z</time>
      </trkpt>
      <trkpt lat="44.56075" lon="3.82917">
        <ele>1229</ele>
        <time>2025-02-07T14:33:20Z</time>
      </trkpt>
      <trkpt lat="44.56047" lon="3.82907">
        <ele>1228</ele>
        <time>2025-02-07T14:33:59Z</time>
      </trkpt>
      <trkpt lat="44.56005" lon="3.82898">
        <ele>1225</ele>
        <time>2025-02-07T14:34:55Z</time>
      </trkpt>
      <trkpt lat="44.56" lon="3.82899">
        <ele>1225</ele>
        <time>2025-02-07T14:35:02Z</time>
      </trkpt>
      <trkpt lat="44.55956" lon="3.8287">
        <ele>1222</ele>
        <time>2025-02-07T14:36:07Z</time>
      </trkpt>
      <trkpt lat="44.55944" lon="3.82865">
        <ele>1220</ele>
        <time>2025-02-07T14:36:24Z</time>
      </trkpt>
      <trkpt lat="44.55916" lon="3.82856">
        <ele>1217</ele>
        <time>2025-02-07T14:37:02Z</time>
      </trkpt>
      <trkpt lat="44.55894" lon="3.82851">
        <ele>1216</ele>
        <time>2025-02-07T14:37:32Z</time>
      </trkpt>
      <trkpt lat="44.55889" lon="3.82852">
        <ele>1215</ele>
        <time>2025-02-07T14:37:38Z</time>
      </trkpt>
      <trkpt lat="44.55868" lon="3.82844">
        <ele>1214</ele>
        <time>2025-02-07T14:38:08Z</time>
      </trkpt>
      <trkpt lat="44.55852" lon="3.82832">
        <ele>1212</ele>
        <time>2025-02-07T14:38:32Z</time>
      </trkpt>
      <trkpt lat="44.55827" lon="3.82817">
        <ele>1210</ele>
        <time>2025-02-07T14:39:08Z</time>
      </trkpt>
      <trkpt lat="44.55823" lon="3.82817">
        <ele>1210</ele>
        <time>2025-02-07T14:39:13Z</time>
      </trkpt>
      <trkpt lat="44.55815" lon="3.8281">
        <ele>1209</ele>
        <time>2025-02-07T14:39:26Z</time>
      </trkpt>
      <trkpt lat="44.55809" lon="3.82811">
        <ele>1209</ele>
        <time>2025-02-07T14:39:34Z</time>
      </trkpt>
      <trkpt lat="44.55796" lon="3.82805">
        <ele>1208</ele>
        <time>2025-02-07T14:39:52Z</time>
      </trkpt>
      <trkpt lat="44.55779" lon="3.82803">
        <ele>1206</ele>
        <time>2025-02-07T14:40:15Z</time>
      </trkpt>
      <trkpt lat="44.55748" lon="3.82786">
        <ele>1204</ele>
        <time>2025-02-07T14:40:59Z</time>
      </trkpt>
      <trkpt lat="44.55719" lon="3.82762">
        <ele>1201</ele>
        <time>2025-02-07T14:41:44Z</time>
      </trkpt>
      <trkpt lat="44.55686" lon="3.82749">
        <ele>1200</ele>
        <time>2025-02-07T14:42:30Z</time>
      </trkpt>
      <trkpt lat="44.55636" lon="3.82747">
        <ele>1197</ele>
        <time>2025-02-07T14:43:37Z</time>
      </trkpt>
      <trkpt lat="44.55589" lon="3.82755">
        <ele>1194</ele>
        <time>2025-02-07T14:44:40Z</time>
      </trkpt>
      <trkpt lat="44.55542" lon="3.82759">
        <ele>1192</ele>
        <time>2025-02-07T14:45:43Z</time>
      </trkpt>
      <trkpt lat="44.55494" lon="3.8276">
        <ele>1190</ele>
        <time>2025-02-07T14:46:47Z</time>
      </trkpt>
      <trkpt lat="44.55469" lon="3.82755">
        <ele>1189</ele>
        <time>2025-02-07T14:47:21Z</time>
      </trkpt>
      <trkpt lat="44.55451" lon="3.82759">
        <ele>1189</ele>
        <time>2025-02-07T14:47:45Z</time>
      </trkpt>
      <trkpt lat="44.55396" lon="3.82758">
        <ele>1187</ele>
        <time>2025-02-07T14:48:58Z</time>
      </trkpt>
      <trkpt lat="44.55385" lon="3.82755">
        <ele>1187</ele>
        <time>2025-02-07T14:49:13Z</time>
      </trkpt>
      <trkpt lat="44.55381" lon="3.82751">
        <ele>1187</ele>
        <time>2025-02-07T14:49:20Z</time>
      </trkpt>
      <trkpt lat="44.55371" lon="3.82752">
        <ele>1186</ele>
        <time>2025-02-07T14:49:33Z</time>
      </trkpt>
      <trkpt lat="44.55366" lon="3.82748">
        <ele>1186</ele>
        <time>2025-02-07T14:49:41Z</time>
      </trkpt>
      <trkpt lat="44.55367" lon="3.82741">
        <ele>1186</ele>
        <time>2025-02-07T14:49:48Z</time>
      </trkpt>
      <trkpt lat="44.55375" lon="3.82749">
        <ele>1186</ele>
        <time>2025-02-07T14:50:01Z</time>
      </trkpt>
      <trkpt lat="44.55377" lon="3.82743">
        <ele>1186</ele>
        <time>2025-02-07T14:50:07Z</time>
      </trkpt>
      <trkpt lat="44.55368" lon="3.8273">
        <ele>1185</ele>
        <time>2025-02-07T14:50:24Z</time>
      </trkpt>
      <trkpt lat="44.55355" lon="3.8268">
        <ele>1183</ele>
        <time>2025-02-07T14:51:15Z</time>
      </trkpt>
      <trkpt lat="44.55342" lon="3.82649">
        <ele>1181</ele>
        <time>2025-02-07T14:51:49Z</time>
      </trkpt>
      <trkpt lat="44.55313" lon="3.82592">
        <ele>1178</ele>
        <time>2025-02-07T14:52:56Z</time>
      </trkpt>
      <trkpt lat="44.55298" lon="3.82568">
        <ele>1177</ele>
        <time>2025-02-07T14:53:26Z</time>
      </trkpt>
      <trkpt lat="44.5529" lon="3.82559">
        <ele>1177</ele>
        <time>2025-02-07T14:53:40Z</time>
      </trkpt>
      <trkpt lat="44.55255" lon="3.82553">
        <ele>1177</ele>
        <time>2025-02-07T14:54:27Z</time>
      </trkpt>
      <trkpt lat="44.55233" lon="3.82538">
        <ele>1177</ele>
        <time>2025-02-07T14:54:59Z</time>
      </trkpt>
      <trkpt lat="44.5521" lon="3.8253">
        <ele>1177</ele>
        <time>2025-02-07T14:55:31Z</time>
      </trkpt>
      <trkpt lat="44.55192" lon="3.82519">
        <ele>1177</ele>
        <time>2025-02-07T14:55:57Z</time>
      </trkpt>
      <trkpt lat="44.55186" lon="3.82519">
        <ele>1177</ele>
        <time>2025-02-07T14:56:05Z</time>
      </trkpt>
      <trkpt lat="44.55183" lon="3.82515">
        <ele>1178</ele>
        <time>2025-02-07T14:56:11Z</time>
      </trkpt>
      <trkpt lat="44.55174" lon="3.82513">
        <ele>1178</ele>
        <time>2025-02-07T14:56:23Z</time>
      </trkpt>
      <trkpt lat="44.55169" lon="3.82509">
        <ele>1178</ele>
        <time>2025-02-07T14:56:31Z</time>
      </trkpt>
      <trkpt lat="44.55167" lon="3.82502">
        <ele>1179</ele>
        <time>2025-02-07T14:56:38Z</time>
      </trkpt>
      <trkpt lat="44.55165" lon="3.82485">
        <ele>1180</ele>
        <time>2025-02-07T14:56:54Z</time>
      </trkpt>
      <trkpt lat="44.55168" lon="3.82471">
        <ele>1181</ele>
        <time>2025-02-07T14:57:08Z</time>
      </trkpt>
      <trkpt lat="44.55164" lon="3.82463">
        <ele>1181</ele>
        <time>2025-02-07T14:57:17Z</time>
      </trkpt>
      <trkpt lat="44.55159" lon="3.8246">
        <ele>1181</ele>
        <time>2025-02-07T14:57:25Z</time>
      </trkpt>
      <trkpt lat="44.55131" lon="3.82461">
        <ele>1179</ele>
        <time>2025-02-07T14:58:02Z</time>
      </trkpt>
      <trkpt lat="44.55121" lon="3.8245">
        <ele>1179</ele>
        <time>2025-02-07T14:58:19Z</time>
      </trkpt>
      <trkpt lat="44.55116" lon="3.82432">
        <ele>1179</ele>
        <time>2025-02-07T14:58:37Z</time>
      </trkpt>
      <trkpt lat="44.55108" lon="3.8242">
        <ele>1180</ele>
        <time>2025-02-07T14:58:53Z</time>
      </trkpt>
    </trkseg>
  </trk>
</gpx>